<?xml version="1.0" encoding="UTF-8" standalone="no" ?>
<gpx xmlns="http://www.topografix.com/GPX/1/1" xmlns:xsi="http://www.w3.org/2001/XMLSchema-instance" xsi:schemaLocation="http://www.topografix.com/GPX/1/1 http://www.topografix.com/GPX/1/1/gpx.xsd" version="1.1" creator="VisuGPX - https://www.visugpx.com">
  <metadata>
    <name>CIRCUIT LASSERAN</name>
    <desc><![CDATA[Beau circuit dans le Gers autour du village de Lasseran  ]]></desc>
  </metadata>
  <trk>
    <name><![CDATA[Laseran circuit12 oct. 2017 14:35:15]]></name>
    <trkseg>
      <trkpt lat="43.59172" lon="0.53805">
        <ele>212.5</ele>
        <time>2017-10-12T12:35:15Z</time>
      </trkpt>
      <trkpt lat="43.5918" lon="0.53799">
        <ele>206.29998779297</ele>
        <time>2017-10-12T12:39:59Z</time>
      </trkpt>
      <trkpt lat="43.59184" lon="0.53788">
        <ele>207.09997558594</ele>
        <time>2017-10-12T12:40:14Z</time>
      </trkpt>
      <trkpt lat="43.59186" lon="0.53777">
        <ele>207.70001256667</ele>
        <time>2017-10-12T12:40:23Z</time>
      </trkpt>
      <trkpt lat="43.59187" lon="0.53765">
        <ele>207.7999897784</ele>
        <time>2017-10-12T12:40:32Z</time>
      </trkpt>
      <trkpt lat="43.59195" lon="0.53759">
        <ele>208.00000148583</ele>
        <time>2017-10-12T12:40:54Z</time>
      </trkpt>
      <trkpt lat="43.59203" lon="0.53761">
        <ele>208.50000236696</ele>
        <time>2017-10-12T12:41:06Z</time>
      </trkpt>
      <trkpt lat="43.59212" lon="0.53764">
        <ele>209.59997889964</ele>
        <time>2017-10-12T12:41:16Z</time>
      </trkpt>
      <trkpt lat="43.5922" lon="0.53766">
        <ele>210.90002365329</ele>
        <time>2017-10-12T12:41:24Z</time>
      </trkpt>
      <trkpt lat="43.59227" lon="0.5376">
        <ele>213.09997025287</ele>
        <time>2017-10-12T12:41:30Z</time>
      </trkpt>
      <trkpt lat="43.59233" lon="0.53751">
        <ele>213.59998147813</ele>
        <time>2017-10-12T12:41:38Z</time>
      </trkpt>
      <trkpt lat="43.59235" lon="0.5374">
        <ele>212.59997809803</ele>
        <time>2017-10-12T12:41:46Z</time>
      </trkpt>
      <trkpt lat="43.5924" lon="0.5373">
        <ele>213.20001719602</ele>
        <time>2017-10-12T12:41:55Z</time>
      </trkpt>
      <trkpt lat="43.59244" lon="0.5372">
        <ele>214.29999164479</ele>
        <time>2017-10-12T12:42:04Z</time>
      </trkpt>
      <trkpt lat="43.59249" lon="0.5371">
        <ele>214.29999454896</ele>
        <time>2017-10-12T12:42:13Z</time>
      </trkpt>
      <trkpt lat="43.59254" lon="0.53701">
        <ele>214.59998404235</ele>
        <time>2017-10-12T12:42:22Z</time>
      </trkpt>
      <trkpt lat="43.59258" lon="0.53691">
        <ele>215.59998353113</ele>
        <time>2017-10-12T12:42:31Z</time>
      </trkpt>
      <trkpt lat="43.59262" lon="0.53681">
        <ele>216.40002856994</ele>
        <time>2017-10-12T12:42:40Z</time>
      </trkpt>
      <trkpt lat="43.59267" lon="0.53671">
        <ele>217.00000167702</ele>
        <time>2017-10-12T12:42:49Z</time>
      </trkpt>
      <trkpt lat="43.59271" lon="0.53661">
        <ele>217.40003007694</ele>
        <time>2017-10-12T12:42:57Z</time>
      </trkpt>
      <trkpt lat="43.59275" lon="0.53651">
        <ele>216.90003751825</ele>
        <time>2017-10-12T12:43:06Z</time>
      </trkpt>
      <trkpt lat="43.5928" lon="0.53641">
        <ele>217.20002085218</ele>
        <time>2017-10-12T12:43:15Z</time>
      </trkpt>
      <trkpt lat="43.59285" lon="0.53631">
        <ele>217.90002479498</ele>
        <time>2017-10-12T12:43:23Z</time>
      </trkpt>
      <trkpt lat="43.59289" lon="0.5362">
        <ele>218.50002951318</ele>
        <time>2017-10-12T12:43:32Z</time>
      </trkpt>
      <trkpt lat="43.59291" lon="0.53609">
        <ele>219.09997964114</ele>
        <time>2017-10-12T12:43:41Z</time>
      </trkpt>
      <trkpt lat="43.59295" lon="0.53598">
        <ele>219.70000956314</ele>
        <time>2017-10-12T12:43:49Z</time>
      </trkpt>
      <trkpt lat="43.59298" lon="0.53587">
        <ele>220.09996961496</ele>
        <time>2017-10-12T12:43:57Z</time>
      </trkpt>
      <trkpt lat="43.59302" lon="0.53577">
        <ele>220.49999259077</ele>
        <time>2017-10-12T12:44:05Z</time>
      </trkpt>
      <trkpt lat="43.59304" lon="0.53565">
        <ele>220.99998614375</ele>
        <time>2017-10-12T12:44:13Z</time>
      </trkpt>
      <trkpt lat="43.59308" lon="0.53555">
        <ele>221.69999605089</ele>
        <time>2017-10-12T12:44:20Z</time>
      </trkpt>
      <trkpt lat="43.59311" lon="0.53543">
        <ele>222.09996296487</ele>
        <time>2017-10-12T12:44:28Z</time>
      </trkpt>
      <trkpt lat="43.59313" lon="0.53532">
        <ele>221.69999939037</ele>
        <time>2017-10-12T12:44:36Z</time>
      </trkpt>
      <trkpt lat="43.59316" lon="0.53521">
        <ele>222.59996472715</ele>
        <time>2017-10-12T12:44:44Z</time>
      </trkpt>
      <trkpt lat="43.5932" lon="0.5351">
        <ele>222.90001604835</ele>
        <time>2017-10-12T12:44:52Z</time>
      </trkpt>
      <trkpt lat="43.59322" lon="0.53498">
        <ele>223.59995737906</ele>
        <time>2017-10-12T12:45:00Z</time>
      </trkpt>
      <trkpt lat="43.59325" lon="0.53487">
        <ele>223.79997429929</ele>
        <time>2017-10-12T12:45:08Z</time>
      </trkpt>
      <trkpt lat="43.59327" lon="0.53475">
        <ele>224.9000021249</ele>
        <time>2017-10-12T12:45:16Z</time>
      </trkpt>
      <trkpt lat="43.5933" lon="0.53464">
        <ele>224.99997748647</ele>
        <time>2017-10-12T12:45:23Z</time>
      </trkpt>
      <trkpt lat="43.59333" lon="0.53453">
        <ele>225.2999617808</ele>
        <time>2017-10-12T12:45:30Z</time>
      </trkpt>
      <trkpt lat="43.59335" lon="0.53442">
        <ele>224.90000341663</ele>
        <time>2017-10-12T12:45:37Z</time>
      </trkpt>
      <trkpt lat="43.59337" lon="0.53432">
        <ele>224.59994932528</ele>
        <time>2017-10-12T12:45:44Z</time>
      </trkpt>
      <trkpt lat="43.59339" lon="0.53421">
        <ele>223.09995752732</ele>
        <time>2017-10-12T12:45:52Z</time>
      </trkpt>
      <trkpt lat="43.59342" lon="0.53409">
        <ele>221.79996650368</ele>
        <time>2017-10-12T12:46:00Z</time>
      </trkpt>
      <trkpt lat="43.59344" lon="0.53398">
        <ele>221.29996593188</ele>
        <time>2017-10-12T12:46:07Z</time>
      </trkpt>
      <trkpt lat="43.59347" lon="0.53388">
        <ele>221.19998248312</ele>
        <time>2017-10-12T12:46:14Z</time>
      </trkpt>
      <trkpt lat="43.59348" lon="0.53377">
        <ele>221.09995611949</ele>
        <time>2017-10-12T12:46:21Z</time>
      </trkpt>
      <trkpt lat="43.5935" lon="0.53365">
        <ele>220.799947081</ele>
        <time>2017-10-12T12:46:29Z</time>
      </trkpt>
      <trkpt lat="43.59359" lon="0.53368">
        <ele>220.70002836946</ele>
        <time>2017-10-12T12:46:45Z</time>
      </trkpt>
      <trkpt lat="43.59364" lon="0.53376">
        <ele>219.10000360985</ele>
        <time>2017-10-12T12:46:54Z</time>
      </trkpt>
      <trkpt lat="43.5937" lon="0.53385">
        <ele>218.09998681915</ele>
        <time>2017-10-12T12:47:02Z</time>
      </trkpt>
      <trkpt lat="43.59374" lon="0.53395">
        <ele>217.50000078553</ele>
        <time>2017-10-12T12:47:08Z</time>
      </trkpt>
      <trkpt lat="43.59382" lon="0.53401">
        <ele>217.30000897342</ele>
        <time>2017-10-12T12:47:17Z</time>
      </trkpt>
      <trkpt lat="43.59388" lon="0.5341">
        <ele>218.00003235134</ele>
        <time>2017-10-12T12:47:26Z</time>
      </trkpt>
      <trkpt lat="43.59393" lon="0.5342">
        <ele>218.0999678238</ele>
        <time>2017-10-12T12:47:39Z</time>
      </trkpt>
      <trkpt lat="43.594" lon="0.53427">
        <ele>219.50000379715</ele>
        <time>2017-10-12T12:47:48Z</time>
      </trkpt>
      <trkpt lat="43.59407" lon="0.53435">
        <ele>218.20003318023</ele>
        <time>2017-10-12T12:47:55Z</time>
      </trkpt>
      <trkpt lat="43.59414" lon="0.53443">
        <ele>215.40003853987</ele>
        <time>2017-10-12T12:48:02Z</time>
      </trkpt>
      <trkpt lat="43.5942" lon="0.53451">
        <ele>214.59998837509</ele>
        <time>2017-10-12T12:48:09Z</time>
      </trkpt>
      <trkpt lat="43.59426" lon="0.5346">
        <ele>214.00000192563</ele>
        <time>2017-10-12T12:48:16Z</time>
      </trkpt>
      <trkpt lat="43.59432" lon="0.53466">
        <ele>214.3000005835</ele>
        <time>2017-10-12T12:48:23Z</time>
      </trkpt>
      <trkpt lat="43.59438" lon="0.53474">
        <ele>214.50001786049</ele>
        <time>2017-10-12T12:48:30Z</time>
      </trkpt>
      <trkpt lat="43.59444" lon="0.53481">
        <ele>214.20003117724</ele>
        <time>2017-10-12T12:48:37Z</time>
      </trkpt>
      <trkpt lat="43.59451" lon="0.53488">
        <ele>214.09999691781</ele>
        <time>2017-10-12T12:48:44Z</time>
      </trkpt>
      <trkpt lat="43.59457" lon="0.53495">
        <ele>214.29999627734</ele>
        <time>2017-10-12T12:48:51Z</time>
      </trkpt>
      <trkpt lat="43.59464" lon="0.53502">
        <ele>214.79999393809</ele>
        <time>2017-10-12T12:48:58Z</time>
      </trkpt>
      <trkpt lat="43.59471" lon="0.53509">
        <ele>215.30000086634</ele>
        <time>2017-10-12T12:49:05Z</time>
      </trkpt>
      <trkpt lat="43.59477" lon="0.53517">
        <ele>215.60000359795</ele>
        <time>2017-10-12T12:49:13Z</time>
      </trkpt>
      <trkpt lat="43.59484" lon="0.53524">
        <ele>216.20003831555</ele>
        <time>2017-10-12T12:49:20Z</time>
      </trkpt>
      <trkpt lat="43.5949" lon="0.53533">
        <ele>216.30001004625</ele>
        <time>2017-10-12T12:49:28Z</time>
      </trkpt>
      <trkpt lat="43.59496" lon="0.5354">
        <ele>216.70002376253</ele>
        <time>2017-10-12T12:49:35Z</time>
      </trkpt>
      <trkpt lat="43.59502" lon="0.53548">
        <ele>216.70004460526</ele>
        <time>2017-10-12T12:49:42Z</time>
      </trkpt>
      <trkpt lat="43.59508" lon="0.53556">
        <ele>215.90003811263</ele>
        <time>2017-10-12T12:49:49Z</time>
      </trkpt>
      <trkpt lat="43.59514" lon="0.53565">
        <ele>215.5999805258</ele>
        <time>2017-10-12T12:49:57Z</time>
      </trkpt>
      <trkpt lat="43.59519" lon="0.53574">
        <ele>216.20002925269</ele>
        <time>2017-10-12T12:50:06Z</time>
      </trkpt>
      <trkpt lat="43.59525" lon="0.53584">
        <ele>215.90002928648</ele>
        <time>2017-10-12T12:50:15Z</time>
      </trkpt>
      <trkpt lat="43.59531" lon="0.53592">
        <ele>215.09999856346</ele>
        <time>2017-10-12T12:50:23Z</time>
      </trkpt>
      <trkpt lat="43.59536" lon="0.53602">
        <ele>213.80001175558</ele>
        <time>2017-10-12T12:50:31Z</time>
      </trkpt>
      <trkpt lat="43.5954" lon="0.53611">
        <ele>212.59999153582</ele>
        <time>2017-10-12T12:50:39Z</time>
      </trkpt>
      <trkpt lat="43.59546" lon="0.53619">
        <ele>211.50001491099</ele>
        <time>2017-10-12T12:50:47Z</time>
      </trkpt>
      <trkpt lat="43.59552" lon="0.53628">
        <ele>209.80002876894</ele>
        <time>2017-10-12T12:50:56Z</time>
      </trkpt>
      <trkpt lat="43.59556" lon="0.53638">
        <ele>208.70003907659</ele>
        <time>2017-10-12T12:51:04Z</time>
      </trkpt>
      <trkpt lat="43.59562" lon="0.53647">
        <ele>207.40004112453</ele>
        <time>2017-10-12T12:51:12Z</time>
      </trkpt>
      <trkpt lat="43.59567" lon="0.53656">
        <ele>206.30001491334</ele>
        <time>2017-10-12T12:51:20Z</time>
      </trkpt>
      <trkpt lat="43.59572" lon="0.53665">
        <ele>205.90006132585</ele>
        <time>2017-10-12T12:51:28Z</time>
      </trkpt>
      <trkpt lat="43.59577" lon="0.53675">
        <ele>205.40003963425</ele>
        <time>2017-10-12T12:51:36Z</time>
      </trkpt>
      <trkpt lat="43.59583" lon="0.53684">
        <ele>205.20002634078</ele>
        <time>2017-10-12T12:51:44Z</time>
      </trkpt>
      <trkpt lat="43.59587" lon="0.53694">
        <ele>204.90006432283</ele>
        <time>2017-10-12T12:51:52Z</time>
      </trkpt>
      <trkpt lat="43.59593" lon="0.53703">
        <ele>204.30001173142</ele>
        <time>2017-10-12T12:52:00Z</time>
      </trkpt>
      <trkpt lat="43.59598" lon="0.53711">
        <ele>204.09999469692</ele>
        <time>2017-10-12T12:52:07Z</time>
      </trkpt>
      <trkpt lat="43.59605" lon="0.53717">
        <ele>204.09999194933</ele>
        <time>2017-10-12T12:52:15Z</time>
      </trkpt>
      <trkpt lat="43.59613" lon="0.53719">
        <ele>202.50002366079</ele>
        <time>2017-10-12T12:52:23Z</time>
      </trkpt>
      <trkpt lat="43.59621" lon="0.53714">
        <ele>201.10002688956</ele>
        <time>2017-10-12T12:52:30Z</time>
      </trkpt>
      <trkpt lat="43.59628" lon="0.53708">
        <ele>200.30001537153</ele>
        <time>2017-10-12T12:52:38Z</time>
      </trkpt>
      <trkpt lat="43.59635" lon="0.53702">
        <ele>199.50002394686</ele>
        <time>2017-10-12T12:52:45Z</time>
      </trkpt>
      <trkpt lat="43.59642" lon="0.53694">
        <ele>199.50004628026</ele>
        <time>2017-10-12T12:52:52Z</time>
      </trkpt>
      <trkpt lat="43.59648" lon="0.53688">
        <ele>199.00003647684</ele>
        <time>2017-10-12T12:52:59Z</time>
      </trkpt>
      <trkpt lat="43.59656" lon="0.53681">
        <ele>198.60000956252</ele>
        <time>2017-10-12T12:53:07Z</time>
      </trkpt>
      <trkpt lat="43.59663" lon="0.53674">
        <ele>198.70005886322</ele>
        <time>2017-10-12T12:53:15Z</time>
      </trkpt>
      <trkpt lat="43.5967" lon="0.53668">
        <ele>197.90010258236</ele>
        <time>2017-10-12T12:53:24Z</time>
      </trkpt>
      <trkpt lat="43.59677" lon="0.53662">
        <ele>196.40007348326</ele>
        <time>2017-10-12T12:53:33Z</time>
      </trkpt>
      <trkpt lat="43.59685" lon="0.53654">
        <ele>195.5000257999</ele>
        <time>2017-10-12T12:53:41Z</time>
      </trkpt>
      <trkpt lat="43.59691" lon="0.53647">
        <ele>194.29999306327</ele>
        <time>2017-10-12T12:53:48Z</time>
      </trkpt>
      <trkpt lat="43.59698" lon="0.53641">
        <ele>193.80002777684</ele>
        <time>2017-10-12T12:53:55Z</time>
      </trkpt>
      <trkpt lat="43.59705" lon="0.53634">
        <ele>192.50004655612</ele>
        <time>2017-10-12T12:54:03Z</time>
      </trkpt>
      <trkpt lat="43.59712" lon="0.53627">
        <ele>191.30002101939</ele>
        <time>2017-10-12T12:54:11Z</time>
      </trkpt>
      <trkpt lat="43.59719" lon="0.53622">
        <ele>190.40005070508</ele>
        <time>2017-10-12T12:54:18Z</time>
      </trkpt>
      <trkpt lat="43.59726" lon="0.53617">
        <ele>189.10005245023</ele>
        <time>2017-10-12T12:54:26Z</time>
      </trkpt>
      <trkpt lat="43.59733" lon="0.53611">
        <ele>187.70002053147</ele>
        <time>2017-10-12T12:54:33Z</time>
      </trkpt>
      <trkpt lat="43.59741" lon="0.53605">
        <ele>187.70001342885</ele>
        <time>2017-10-12T12:54:40Z</time>
      </trkpt>
      <trkpt lat="43.59748" lon="0.536">
        <ele>186.90011050247</ele>
        <time>2017-10-12T12:54:48Z</time>
      </trkpt>
      <trkpt lat="43.59756" lon="0.53594">
        <ele>185.50010088541</ele>
        <time>2017-10-12T12:54:57Z</time>
      </trkpt>
      <trkpt lat="43.59764" lon="0.53589">
        <ele>183.80010843</ele>
        <time>2017-10-12T12:55:07Z</time>
      </trkpt>
      <trkpt lat="43.59772" lon="0.53583">
        <ele>183.30001358738</ele>
        <time>2017-10-12T12:55:15Z</time>
      </trkpt>
      <trkpt lat="43.59779" lon="0.53577">
        <ele>182.59999217782</ele>
        <time>2017-10-12T12:55:22Z</time>
      </trkpt>
      <trkpt lat="43.59786" lon="0.53571">
        <ele>182.20001753029</ele>
        <time>2017-10-12T12:55:29Z</time>
      </trkpt>
      <trkpt lat="43.59793" lon="0.53563">
        <ele>180.8001488974</ele>
        <time>2017-10-12T12:55:36Z</time>
      </trkpt>
      <trkpt lat="43.59799" lon="0.53555">
        <ele>178.90012399817</ele>
        <time>2017-10-12T12:55:44Z</time>
      </trkpt>
      <trkpt lat="43.59805" lon="0.53547">
        <ele>178.1000533622</ele>
        <time>2017-10-12T12:55:52Z</time>
      </trkpt>
      <trkpt lat="43.59811" lon="0.53538">
        <ele>176.30002968663</ele>
        <time>2017-10-12T12:56:01Z</time>
      </trkpt>
      <trkpt lat="43.59817" lon="0.5353">
        <ele>174.89997648686</ele>
        <time>2017-10-12T12:56:09Z</time>
      </trkpt>
      <trkpt lat="43.59823" lon="0.53523">
        <ele>173.70005540238</ele>
        <time>2017-10-12T12:56:17Z</time>
      </trkpt>
      <trkpt lat="43.59829" lon="0.53516">
        <ele>172.20002423424</ele>
        <time>2017-10-12T12:56:24Z</time>
      </trkpt>
      <trkpt lat="43.59836" lon="0.53511">
        <ele>171.60003417687</ele>
        <time>2017-10-12T12:56:31Z</time>
      </trkpt>
      <trkpt lat="43.59845" lon="0.53508">
        <ele>171.1000491087</ele>
        <time>2017-10-12T12:56:39Z</time>
      </trkpt>
      <trkpt lat="43.59853" lon="0.53503">
        <ele>168.80002985388</ele>
        <time>2017-10-12T12:56:47Z</time>
      </trkpt>
      <trkpt lat="43.59861" lon="0.53498">
        <ele>167.20003930408</ele>
        <time>2017-10-12T12:56:54Z</time>
      </trkpt>
      <trkpt lat="43.59868" lon="0.53493">
        <ele>166.00006026841</ele>
        <time>2017-10-12T12:57:01Z</time>
      </trkpt>
      <trkpt lat="43.59876" lon="0.53488">
        <ele>165.50007463319</ele>
        <time>2017-10-12T12:57:09Z</time>
      </trkpt>
      <trkpt lat="43.59885" lon="0.53484">
        <ele>165.10001017184</ele>
        <time>2017-10-12T12:57:17Z</time>
      </trkpt>
      <trkpt lat="43.59892" lon="0.53479">
        <ele>165.10003566167</ele>
        <time>2017-10-12T12:57:24Z</time>
      </trkpt>
      <trkpt lat="43.599" lon="0.53474">
        <ele>164.40004090279</ele>
        <time>2017-10-12T12:57:32Z</time>
      </trkpt>
      <trkpt lat="43.59907" lon="0.53469">
        <ele>164.00008174274</ele>
        <time>2017-10-12T12:57:39Z</time>
      </trkpt>
      <trkpt lat="43.59914" lon="0.53464">
        <ele>163.60008905385</ele>
        <time>2017-10-12T12:57:47Z</time>
      </trkpt>
      <trkpt lat="43.59922" lon="0.53459">
        <ele>164.69998898919</ele>
        <time>2017-10-12T12:57:54Z</time>
      </trkpt>
      <trkpt lat="43.59927" lon="0.53451">
        <ele>164.20001193623</ele>
        <time>2017-10-12T12:58:00Z</time>
      </trkpt>
      <trkpt lat="43.5993" lon="0.5344">
        <ele>163.90006584769</ele>
        <time>2017-10-12T12:58:07Z</time>
      </trkpt>
      <trkpt lat="43.59934" lon="0.53429">
        <ele>163.19994014583</ele>
        <time>2017-10-12T12:58:19Z</time>
      </trkpt>
      <trkpt lat="43.5994" lon="0.5342">
        <ele>162.2000340973</ele>
        <time>2017-10-12T12:58:26Z</time>
      </trkpt>
      <trkpt lat="43.59946" lon="0.53413">
        <ele>162.60002734749</ele>
        <time>2017-10-12T12:58:33Z</time>
      </trkpt>
      <trkpt lat="43.59952" lon="0.53406">
        <ele>162.20004109695</ele>
        <time>2017-10-12T12:58:40Z</time>
      </trkpt>
      <trkpt lat="43.59958" lon="0.53399">
        <ele>162.20004391566</ele>
        <time>2017-10-12T12:58:47Z</time>
      </trkpt>
      <trkpt lat="43.59966" lon="0.53394">
        <ele>162.6001702296</ele>
        <time>2017-10-12T12:58:55Z</time>
      </trkpt>
      <trkpt lat="43.59974" lon="0.5339">
        <ele>163.60000204952</ele>
        <time>2017-10-12T12:59:04Z</time>
      </trkpt>
      <trkpt lat="43.59982" lon="0.53385">
        <ele>163.80002736436</ele>
        <time>2017-10-12T12:59:11Z</time>
      </trkpt>
      <trkpt lat="43.59989" lon="0.53378">
        <ele>163.30004581443</ele>
        <time>2017-10-12T12:59:19Z</time>
      </trkpt>
      <trkpt lat="43.59992" lon="0.53366">
        <ele>163.20005434547</ele>
        <time>2017-10-12T12:59:27Z</time>
      </trkpt>
      <trkpt lat="43.59995" lon="0.53356">
        <ele>163.40003225902</ele>
        <time>2017-10-12T12:59:35Z</time>
      </trkpt>
      <trkpt lat="43.59998" lon="0.53346">
        <ele>164.50003117508</ele>
        <time>2017-10-12T12:59:42Z</time>
      </trkpt>
      <trkpt lat="43.60002" lon="0.53336">
        <ele>165.40006006098</ele>
        <time>2017-10-12T12:59:49Z</time>
      </trkpt>
      <trkpt lat="43.60006" lon="0.53326">
        <ele>165.60000104803</ele>
        <time>2017-10-12T12:59:56Z</time>
      </trkpt>
      <trkpt lat="43.60011" lon="0.53316">
        <ele>165.8000173991</ele>
        <time>2017-10-12T13:00:04Z</time>
      </trkpt>
      <trkpt lat="43.60015" lon="0.53306">
        <ele>166.80002697855</ele>
        <time>2017-10-12T13:00:11Z</time>
      </trkpt>
      <trkpt lat="43.60021" lon="0.53298">
        <ele>167.1000428973</ele>
        <time>2017-10-12T13:00:19Z</time>
      </trkpt>
      <trkpt lat="43.60023" lon="0.53286">
        <ele>167.70017212194</ele>
        <time>2017-10-12T13:00:28Z</time>
      </trkpt>
      <trkpt lat="43.6002" lon="0.53276">
        <ele>170.00006130583</ele>
        <time>2017-10-12T13:00:44Z</time>
      </trkpt>
      <trkpt lat="43.60018" lon="0.53265">
        <ele>170.70000958173</ele>
        <time>2017-10-12T13:00:51Z</time>
      </trkpt>
      <trkpt lat="43.60016" lon="0.53253">
        <ele>171.09999778187</ele>
        <time>2017-10-12T13:00:59Z</time>
      </trkpt>
      <trkpt lat="43.60014" lon="0.53242">
        <ele>171.4999771397</ele>
        <time>2017-10-12T13:01:52Z</time>
      </trkpt>
      <trkpt lat="43.60012" lon="0.53231">
        <ele>172.3000156383</ele>
        <time>2017-10-12T13:02:01Z</time>
      </trkpt>
      <trkpt lat="43.6001" lon="0.5322">
        <ele>173.00001703158</ele>
        <time>2017-10-12T13:02:12Z</time>
      </trkpt>
      <trkpt lat="43.60007" lon="0.53208">
        <ele>174.6999879742</ele>
        <time>2017-10-12T13:02:23Z</time>
      </trkpt>
      <trkpt lat="43.60005" lon="0.53197">
        <ele>175.70000608095</ele>
        <time>2017-10-12T13:02:32Z</time>
      </trkpt>
      <trkpt lat="43.60003" lon="0.53186">
        <ele>176.29998012332</ele>
        <time>2017-10-12T13:02:40Z</time>
      </trkpt>
      <trkpt lat="43.60001" lon="0.53175">
        <ele>176.40002330127</ele>
        <time>2017-10-12T13:02:48Z</time>
      </trkpt>
      <trkpt lat="43.59999" lon="0.53164">
        <ele>176.70002777244</ele>
        <time>2017-10-12T13:02:56Z</time>
      </trkpt>
      <trkpt lat="43.59997" lon="0.53153">
        <ele>177.20001943546</ele>
        <time>2017-10-12T13:03:04Z</time>
      </trkpt>
      <trkpt lat="43.59995" lon="0.53142">
        <ele>177.29998283371</ele>
        <time>2017-10-12T13:03:12Z</time>
      </trkpt>
      <trkpt lat="43.59994" lon="0.5313">
        <ele>177.10001693588</ele>
        <time>2017-10-12T13:03:20Z</time>
      </trkpt>
      <trkpt lat="43.59991" lon="0.53119">
        <ele>176.50003328447</ele>
        <time>2017-10-12T13:03:28Z</time>
      </trkpt>
      <trkpt lat="43.59989" lon="0.53107">
        <ele>176.20002944975</ele>
        <time>2017-10-12T13:03:37Z</time>
      </trkpt>
      <trkpt lat="43.59987" lon="0.53095">
        <ele>175.69999729048</ele>
        <time>2017-10-12T13:03:45Z</time>
      </trkpt>
      <trkpt lat="43.59985" lon="0.53085">
        <ele>175.40007651993</ele>
        <time>2017-10-12T13:03:53Z</time>
      </trkpt>
      <trkpt lat="43.59983" lon="0.53074">
        <ele>174.7000798085</ele>
        <time>2017-10-12T13:04:00Z</time>
      </trkpt>
      <trkpt lat="43.5998" lon="0.53063">
        <ele>174.00001366265</ele>
        <time>2017-10-12T13:04:07Z</time>
      </trkpt>
      <trkpt lat="43.59978" lon="0.53052">
        <ele>173.29996743686</ele>
        <time>2017-10-12T13:04:14Z</time>
      </trkpt>
      <trkpt lat="43.59976" lon="0.53041">
        <ele>172.70002810624</ele>
        <time>2017-10-12T13:04:21Z</time>
      </trkpt>
      <trkpt lat="43.59975" lon="0.5303">
        <ele>172.60001519039</ele>
        <time>2017-10-12T13:04:28Z</time>
      </trkpt>
      <trkpt lat="43.59972" lon="0.53018">
        <ele>171.99997911941</ele>
        <time>2017-10-12T13:04:35Z</time>
      </trkpt>
      <trkpt lat="43.5997" lon="0.53007">
        <ele>171.70002647369</ele>
        <time>2017-10-12T13:04:42Z</time>
      </trkpt>
      <trkpt lat="43.59968" lon="0.52997">
        <ele>171.70004939634</ele>
        <time>2017-10-12T13:04:49Z</time>
      </trkpt>
      <trkpt lat="43.59966" lon="0.52986">
        <ele>172.30001467422</ele>
        <time>2017-10-12T13:04:56Z</time>
      </trkpt>
      <trkpt lat="43.59965" lon="0.52975">
        <ele>173.10002329049</ele>
        <time>2017-10-12T13:05:04Z</time>
      </trkpt>
      <trkpt lat="43.59962" lon="0.52964">
        <ele>172.79997294846</ele>
        <time>2017-10-12T13:05:11Z</time>
      </trkpt>
      <trkpt lat="43.59961" lon="0.52952">
        <ele>172.70000155785</ele>
        <time>2017-10-12T13:05:18Z</time>
      </trkpt>
      <trkpt lat="43.59959" lon="0.52941">
        <ele>172.89996856789</ele>
        <time>2017-10-12T13:05:25Z</time>
      </trkpt>
      <trkpt lat="43.59957" lon="0.5293">
        <ele>173.00001015752</ele>
        <time>2017-10-12T13:05:32Z</time>
      </trkpt>
      <trkpt lat="43.59956" lon="0.52919">
        <ele>172.90001636795</ele>
        <time>2017-10-12T13:05:39Z</time>
      </trkpt>
      <trkpt lat="43.59956" lon="0.52907">
        <ele>172.90007503739</ele>
        <time>2017-10-12T13:05:48Z</time>
      </trkpt>
      <trkpt lat="43.59954" lon="0.52896">
        <ele>172.90011971462</ele>
        <time>2017-10-12T13:05:56Z</time>
      </trkpt>
      <trkpt lat="43.59946" lon="0.52892">
        <ele>171.80006301346</ele>
        <time>2017-10-12T13:06:01Z</time>
      </trkpt>
      <trkpt lat="43.59938" lon="0.52889">
        <ele>171.99992745392</ele>
        <time>2017-10-12T13:06:07Z</time>
      </trkpt>
      <trkpt lat="43.59931" lon="0.52885">
        <ele>173.09987618279</ele>
        <time>2017-10-12T13:06:14Z</time>
      </trkpt>
      <trkpt lat="43.59924" lon="0.52878">
        <ele>172.69989819472</ele>
        <time>2017-10-12T13:06:21Z</time>
      </trkpt>
      <trkpt lat="43.59919" lon="0.52869">
        <ele>172.39995636117</ele>
        <time>2017-10-12T13:06:28Z</time>
      </trkpt>
      <trkpt lat="43.59919" lon="0.52857">
        <ele>170.99991689364</ele>
        <time>2017-10-12T13:06:36Z</time>
      </trkpt>
      <trkpt lat="43.59921" lon="0.52845">
        <ele>170.90005038534</ele>
        <time>2017-10-12T13:06:44Z</time>
      </trkpt>
      <trkpt lat="43.59922" lon="0.52833">
        <ele>170.80001115668</ele>
        <time>2017-10-12T13:06:53Z</time>
      </trkpt>
      <trkpt lat="43.59922" lon="0.52822">
        <ele>171.30005657796</ele>
        <time>2017-10-12T13:07:01Z</time>
      </trkpt>
      <trkpt lat="43.59921" lon="0.5281">
        <ele>170.80007885199</ele>
        <time>2017-10-12T13:07:10Z</time>
      </trkpt>
      <trkpt lat="43.59921" lon="0.52798">
        <ele>171.50011772297</ele>
        <time>2017-10-12T13:07:18Z</time>
      </trkpt>
      <trkpt lat="43.59919" lon="0.52787">
        <ele>171.90005981759</ele>
        <time>2017-10-12T13:07:27Z</time>
      </trkpt>
      <trkpt lat="43.59919" lon="0.52776">
        <ele>172.40005810649</ele>
        <time>2017-10-12T13:07:35Z</time>
      </trkpt>
      <trkpt lat="43.59923" lon="0.52765">
        <ele>173.30010564732</ele>
        <time>2017-10-12T13:07:44Z</time>
      </trkpt>
      <trkpt lat="43.59929" lon="0.52756">
        <ele>173.30004021199</ele>
        <time>2017-10-12T13:07:53Z</time>
      </trkpt>
      <trkpt lat="43.59934" lon="0.52746">
        <ele>173.90004015641</ele>
        <time>2017-10-12T13:08:01Z</time>
      </trkpt>
      <trkpt lat="43.59938" lon="0.52737">
        <ele>173.80004842633</ele>
        <time>2017-10-12T13:08:09Z</time>
      </trkpt>
      <trkpt lat="43.59944" lon="0.52729">
        <ele>175.00004792254</ele>
        <time>2017-10-12T13:08:17Z</time>
      </trkpt>
      <trkpt lat="43.5995" lon="0.52721">
        <ele>176.20009977153</ele>
        <time>2017-10-12T13:08:26Z</time>
      </trkpt>
      <trkpt lat="43.59956" lon="0.52713">
        <ele>177.00009168152</ele>
        <time>2017-10-12T13:08:35Z</time>
      </trkpt>
      <trkpt lat="43.59961" lon="0.52704">
        <ele>177.60006195523</ele>
        <time>2017-10-12T13:08:44Z</time>
      </trkpt>
      <trkpt lat="43.59968" lon="0.52696">
        <ele>178.10004749521</ele>
        <time>2017-10-12T13:08:52Z</time>
      </trkpt>
      <trkpt lat="43.59974" lon="0.5269">
        <ele>179.20009412913</ele>
        <time>2017-10-12T13:09:01Z</time>
      </trkpt>
      <trkpt lat="43.59981" lon="0.52683">
        <ele>180.60005717514</ele>
        <time>2017-10-12T13:09:09Z</time>
      </trkpt>
      <trkpt lat="43.59987" lon="0.52677">
        <ele>181.70009068313</ele>
        <time>2017-10-12T13:09:17Z</time>
      </trkpt>
      <trkpt lat="43.59994" lon="0.52669">
        <ele>183.00009099181</ele>
        <time>2017-10-12T13:09:26Z</time>
      </trkpt>
      <trkpt lat="43.60001" lon="0.52663">
        <ele>182.80007409232</ele>
        <time>2017-10-12T13:09:34Z</time>
      </trkpt>
      <trkpt lat="43.60007" lon="0.52656">
        <ele>182.80004953572</ele>
        <time>2017-10-12T13:09:42Z</time>
      </trkpt>
      <trkpt lat="43.60013" lon="0.52649">
        <ele>183.00008859994</ele>
        <time>2017-10-12T13:09:50Z</time>
      </trkpt>
      <trkpt lat="43.6002" lon="0.52643">
        <ele>184.00006051755</ele>
        <time>2017-10-12T13:09:58Z</time>
      </trkpt>
      <trkpt lat="43.60027" lon="0.52636">
        <ele>184.80011287844</ele>
        <time>2017-10-12T13:10:07Z</time>
      </trkpt>
      <trkpt lat="43.60033" lon="0.52628">
        <ele>185.50004131492</ele>
        <time>2017-10-12T13:10:16Z</time>
      </trkpt>
      <trkpt lat="43.60041" lon="0.52621">
        <ele>186.50005000178</ele>
        <time>2017-10-12T13:10:24Z</time>
      </trkpt>
      <trkpt lat="43.60048" lon="0.52614">
        <ele>187.10002961784</ele>
        <time>2017-10-12T13:10:33Z</time>
      </trkpt>
      <trkpt lat="43.60055" lon="0.52608">
        <ele>188.10010233038</ele>
        <time>2017-10-12T13:10:41Z</time>
      </trkpt>
      <trkpt lat="43.60062" lon="0.52601">
        <ele>189.50014674355</ele>
        <time>2017-10-12T13:10:51Z</time>
      </trkpt>
      <trkpt lat="43.60069" lon="0.52594">
        <ele>190.10001774893</ele>
        <time>2017-10-12T13:11:01Z</time>
      </trkpt>
      <trkpt lat="43.60075" lon="0.52588">
        <ele>190.49998662951</ele>
        <time>2017-10-12T13:11:08Z</time>
      </trkpt>
      <trkpt lat="43.60082" lon="0.5258">
        <ele>190.30002150841</ele>
        <time>2017-10-12T13:11:16Z</time>
      </trkpt>
      <trkpt lat="43.60089" lon="0.52572">
        <ele>190.8000455315</ele>
        <time>2017-10-12T13:11:24Z</time>
      </trkpt>
      <trkpt lat="43.60095" lon="0.52564">
        <ele>192.20007886239</ele>
        <time>2017-10-12T13:11:32Z</time>
      </trkpt>
      <trkpt lat="43.60102" lon="0.52557">
        <ele>193.50002690642</ele>
        <time>2017-10-12T13:11:40Z</time>
      </trkpt>
      <trkpt lat="43.6011" lon="0.52552">
        <ele>194.7000921892</ele>
        <time>2017-10-12T13:11:48Z</time>
      </trkpt>
      <trkpt lat="43.60117" lon="0.52546">
        <ele>195.60009292154</ele>
        <time>2017-10-12T13:11:57Z</time>
      </trkpt>
      <trkpt lat="43.60124" lon="0.52539">
        <ele>196.60010771983</ele>
        <time>2017-10-12T13:12:06Z</time>
      </trkpt>
      <trkpt lat="43.6013" lon="0.52531">
        <ele>198.5000490677</ele>
        <time>2017-10-12T13:12:15Z</time>
      </trkpt>
      <trkpt lat="43.60137" lon="0.52526">
        <ele>200.00011071045</ele>
        <time>2017-10-12T13:12:23Z</time>
      </trkpt>
      <trkpt lat="43.60144" lon="0.52518">
        <ele>200.30001589962</ele>
        <time>2017-10-12T13:12:31Z</time>
      </trkpt>
      <trkpt lat="43.60151" lon="0.52512">
        <ele>200.30003404837</ele>
        <time>2017-10-12T13:12:39Z</time>
      </trkpt>
      <trkpt lat="43.60157" lon="0.52505">
        <ele>202.10011344156</ele>
        <time>2017-10-12T13:12:47Z</time>
      </trkpt>
      <trkpt lat="43.60165" lon="0.52501">
        <ele>202.80009444337</ele>
        <time>2017-10-12T13:12:55Z</time>
      </trkpt>
      <trkpt lat="43.60173" lon="0.52496">
        <ele>204.00024196932</ele>
        <time>2017-10-12T13:15:10Z</time>
      </trkpt>
      <trkpt lat="43.60181" lon="0.52492">
        <ele>207.09996458021</ele>
        <time>2017-10-12T13:16:46Z</time>
      </trkpt>
      <trkpt lat="43.60189" lon="0.52488">
        <ele>207.60001150767</ele>
        <time>2017-10-12T13:16:55Z</time>
      </trkpt>
      <trkpt lat="43.60196" lon="0.52482">
        <ele>208.10002389516</ele>
        <time>2017-10-12T13:17:04Z</time>
      </trkpt>
      <trkpt lat="43.60203" lon="0.52476">
        <ele>208.90018634892</ele>
        <time>2017-10-12T13:17:13Z</time>
      </trkpt>
      <trkpt lat="43.6021" lon="0.5247">
        <ele>209.20014286714</ele>
        <time>2017-10-12T13:17:23Z</time>
      </trkpt>
      <trkpt lat="43.60218" lon="0.52465">
        <ele>208.80001629474</ele>
        <time>2017-10-12T13:17:31Z</time>
      </trkpt>
      <trkpt lat="43.60226" lon="0.52462">
        <ele>209.59998952735</ele>
        <time>2017-10-12T13:17:38Z</time>
      </trkpt>
      <trkpt lat="43.60233" lon="0.52456">
        <ele>210.3000496256</ele>
        <time>2017-10-12T13:17:46Z</time>
      </trkpt>
      <trkpt lat="43.6024" lon="0.52448">
        <ele>211.50017776944</ele>
        <time>2017-10-12T13:17:56Z</time>
      </trkpt>
      <trkpt lat="43.60248" lon="0.52445">
        <ele>211.10000618325</ele>
        <time>2017-10-12T13:18:04Z</time>
      </trkpt>
      <trkpt lat="43.60256" lon="0.5244">
        <ele>212.00017800025</ele>
        <time>2017-10-12T13:18:14Z</time>
      </trkpt>
      <trkpt lat="43.60264" lon="0.52436">
        <ele>213.60009499958</ele>
        <time>2017-10-12T13:18:23Z</time>
      </trkpt>
      <trkpt lat="43.60272" lon="0.52432">
        <ele>213.79997253516</ele>
        <time>2017-10-12T13:18:32Z</time>
      </trkpt>
      <trkpt lat="43.6028" lon="0.52426">
        <ele>214.20005637808</ele>
        <time>2017-10-12T13:18:41Z</time>
      </trkpt>
      <trkpt lat="43.60286" lon="0.52418">
        <ele>214.59998282644</ele>
        <time>2017-10-12T13:18:49Z</time>
      </trkpt>
      <trkpt lat="43.60293" lon="0.52414">
        <ele>213.79996799149</ele>
        <time>2017-10-12T13:18:56Z</time>
      </trkpt>
      <trkpt lat="43.60301" lon="0.52408">
        <ele>213.80015345393</ele>
        <time>2017-10-12T13:19:04Z</time>
      </trkpt>
      <trkpt lat="43.60309" lon="0.52403">
        <ele>214.90004370406</ele>
        <time>2017-10-12T13:19:13Z</time>
      </trkpt>
      <trkpt lat="43.60316" lon="0.52398">
        <ele>215.10004143579</ele>
        <time>2017-10-12T13:19:21Z</time>
      </trkpt>
      <trkpt lat="43.60324" lon="0.52393">
        <ele>215.69998264079</ele>
        <time>2017-10-12T13:19:29Z</time>
      </trkpt>
      <trkpt lat="43.60331" lon="0.52388">
        <ele>216.60007077018</ele>
        <time>2017-10-12T13:19:37Z</time>
      </trkpt>
      <trkpt lat="43.60339" lon="0.52381">
        <ele>218.20004666568</ele>
        <time>2017-10-12T13:19:45Z</time>
      </trkpt>
      <trkpt lat="43.60345" lon="0.52375">
        <ele>218.30002104456</ele>
        <time>2017-10-12T13:19:52Z</time>
      </trkpt>
      <trkpt lat="43.60352" lon="0.52368">
        <ele>218.4000170342</ele>
        <time>2017-10-12T13:19:59Z</time>
      </trkpt>
      <trkpt lat="43.60358" lon="0.52361">
        <ele>218.00003067991</ele>
        <time>2017-10-12T13:20:07Z</time>
      </trkpt>
      <trkpt lat="43.60365" lon="0.52356">
        <ele>218.50011036428</ele>
        <time>2017-10-12T13:20:14Z</time>
      </trkpt>
      <trkpt lat="43.60373" lon="0.52352">
        <ele>218.40018115673</ele>
        <time>2017-10-12T13:20:22Z</time>
      </trkpt>
      <trkpt lat="43.60381" lon="0.52349">
        <ele>218.80011167325</ele>
        <time>2017-10-12T13:20:31Z</time>
      </trkpt>
      <trkpt lat="43.60389" lon="0.52352">
        <ele>218.40017796939</ele>
        <time>2017-10-12T13:20:39Z</time>
      </trkpt>
      <trkpt lat="43.60398" lon="0.52354">
        <ele>218.90021756363</ele>
        <time>2017-10-12T13:20:48Z</time>
      </trkpt>
      <trkpt lat="43.60406" lon="0.52358">
        <ele>219.40026909782</ele>
        <time>2017-10-12T13:21:07Z</time>
      </trkpt>
      <trkpt lat="43.60414" lon="0.52361">
        <ele>219.09999743003</ele>
        <time>2017-10-12T13:21:15Z</time>
      </trkpt>
      <trkpt lat="43.60422" lon="0.52362">
        <ele>218.19996312551</ele>
        <time>2017-10-12T13:21:22Z</time>
      </trkpt>
      <trkpt lat="43.60431" lon="0.52361">
        <ele>218.59996502945</ele>
        <time>2017-10-12T13:21:29Z</time>
      </trkpt>
      <trkpt lat="43.6044" lon="0.52359">
        <ele>219.50004060622</ele>
        <time>2017-10-12T13:21:37Z</time>
      </trkpt>
      <trkpt lat="43.60448" lon="0.52357">
        <ele>220.19997054191</ele>
        <time>2017-10-12T13:21:45Z</time>
      </trkpt>
      <trkpt lat="43.60456" lon="0.52353">
        <ele>221.40005048193</ele>
        <time>2017-10-12T13:21:53Z</time>
      </trkpt>
      <trkpt lat="43.60464" lon="0.52349">
        <ele>221.40006008011</ele>
        <time>2017-10-12T13:22:01Z</time>
      </trkpt>
      <trkpt lat="43.60472" lon="0.52346">
        <ele>222.00009262061</ele>
        <time>2017-10-12T13:22:09Z</time>
      </trkpt>
      <trkpt lat="43.60481" lon="0.52342">
        <ele>222.80006042707</ele>
        <time>2017-10-12T13:22:18Z</time>
      </trkpt>
      <trkpt lat="43.60489" lon="0.52338">
        <ele>224.2000362512</ele>
        <time>2017-10-12T13:22:26Z</time>
      </trkpt>
      <trkpt lat="43.60497" lon="0.52334">
        <ele>225.10003197847</ele>
        <time>2017-10-12T13:22:34Z</time>
      </trkpt>
      <trkpt lat="43.60505" lon="0.52331">
        <ele>225.90005863005</ele>
        <time>2017-10-12T13:22:41Z</time>
      </trkpt>
      <trkpt lat="43.60512" lon="0.52327">
        <ele>226.30004198675</ele>
        <time>2017-10-12T13:22:48Z</time>
      </trkpt>
      <trkpt lat="43.60519" lon="0.52321">
        <ele>226.60002924536</ele>
        <time>2017-10-12T13:22:55Z</time>
      </trkpt>
      <trkpt lat="43.60526" lon="0.52315">
        <ele>226.90006924533</ele>
        <time>2017-10-12T13:23:02Z</time>
      </trkpt>
      <trkpt lat="43.60532" lon="0.52308">
        <ele>227.3000442427</ele>
        <time>2017-10-12T13:23:09Z</time>
      </trkpt>
      <trkpt lat="43.60539" lon="0.52301">
        <ele>227.20008446754</ele>
        <time>2017-10-12T13:23:16Z</time>
      </trkpt>
      <trkpt lat="43.60545" lon="0.52294">
        <ele>227.7000853716</ele>
        <time>2017-10-12T13:23:23Z</time>
      </trkpt>
      <trkpt lat="43.60551" lon="0.52285">
        <ele>227.60006994835</ele>
        <time>2017-10-12T13:23:31Z</time>
      </trkpt>
      <trkpt lat="43.60558" lon="0.52278">
        <ele>229.30015718227</ele>
        <time>2017-10-12T13:23:39Z</time>
      </trkpt>
      <trkpt lat="43.60564" lon="0.52271">
        <ele>230.60006955271</ele>
        <time>2017-10-12T13:23:47Z</time>
      </trkpt>
      <trkpt lat="43.60569" lon="0.52261">
        <ele>230.80008038532</ele>
        <time>2017-10-12T13:23:55Z</time>
      </trkpt>
      <trkpt lat="43.60575" lon="0.52252">
        <ele>231.50010733724</ele>
        <time>2017-10-12T13:24:03Z</time>
      </trkpt>
      <trkpt lat="43.60579" lon="0.52241">
        <ele>231.60003368683</ele>
        <time>2017-10-12T13:24:11Z</time>
      </trkpt>
      <trkpt lat="43.60581" lon="0.5223">
        <ele>231.89998761014</ele>
        <time>2017-10-12T13:24:18Z</time>
      </trkpt>
      <trkpt lat="43.60584" lon="0.5222">
        <ele>232.20006530422</ele>
        <time>2017-10-12T13:24:25Z</time>
      </trkpt>
      <trkpt lat="43.60586" lon="0.52208">
        <ele>232.70004949137</ele>
        <time>2017-10-12T13:24:33Z</time>
      </trkpt>
      <trkpt lat="43.60589" lon="0.52196">
        <ele>234.00009799226</ele>
        <time>2017-10-12T13:24:41Z</time>
      </trkpt>
      <trkpt lat="43.60591" lon="0.52185">
        <ele>234.80004734737</ele>
        <time>2017-10-12T13:24:49Z</time>
      </trkpt>
      <trkpt lat="43.60593" lon="0.52174">
        <ele>235.60003751775</ele>
        <time>2017-10-12T13:24:57Z</time>
      </trkpt>
      <trkpt lat="43.60595" lon="0.52163">
        <ele>236.29995826787</ele>
        <time>2017-10-12T13:25:04Z</time>
      </trkpt>
      <trkpt lat="43.60597" lon="0.52152">
        <ele>236.79997523931</ele>
        <time>2017-10-12T13:25:11Z</time>
      </trkpt>
      <trkpt lat="43.60598" lon="0.52141">
        <ele>236.7999886623</ele>
        <time>2017-10-12T13:25:18Z</time>
      </trkpt>
      <trkpt lat="43.60599" lon="0.52129">
        <ele>237.09997380026</ele>
        <time>2017-10-12T13:25:26Z</time>
      </trkpt>
      <trkpt lat="43.60601" lon="0.52117">
        <ele>237.60003886127</ele>
        <time>2017-10-12T13:25:34Z</time>
      </trkpt>
      <trkpt lat="43.60603" lon="0.52106">
        <ele>237.39999438106</ele>
        <time>2017-10-12T13:25:41Z</time>
      </trkpt>
      <trkpt lat="43.60605" lon="0.52094">
        <ele>237.50004570633</ele>
        <time>2017-10-12T13:25:48Z</time>
      </trkpt>
      <trkpt lat="43.60606" lon="0.52083">
        <ele>238.40005383794</ele>
        <time>2017-10-12T13:25:55Z</time>
      </trkpt>
      <trkpt lat="43.60607" lon="0.52072">
        <ele>239.00007560269</ele>
        <time>2017-10-12T13:26:02Z</time>
      </trkpt>
      <trkpt lat="43.60609" lon="0.5206">
        <ele>239.00003183544</ele>
        <time>2017-10-12T13:26:09Z</time>
      </trkpt>
      <trkpt lat="43.60611" lon="0.5205">
        <ele>239.60000281059</ele>
        <time>2017-10-12T13:26:16Z</time>
      </trkpt>
      <trkpt lat="43.60612" lon="0.52039">
        <ele>239.50000917472</ele>
        <time>2017-10-12T13:26:23Z</time>
      </trkpt>
      <trkpt lat="43.60614" lon="0.52028">
        <ele>239.40003825001</ele>
        <time>2017-10-12T13:26:30Z</time>
      </trkpt>
      <trkpt lat="43.60616" lon="0.52016">
        <ele>239.40022482064</ele>
        <time>2017-10-12T13:26:38Z</time>
      </trkpt>
      <trkpt lat="43.60617" lon="0.52005">
        <ele>239.90010531636</ele>
        <time>2017-10-12T13:26:46Z</time>
      </trkpt>
      <trkpt lat="43.6062" lon="0.51994">
        <ele>239.30000529191</ele>
        <time>2017-10-12T13:26:53Z</time>
      </trkpt>
      <trkpt lat="43.60621" lon="0.51982">
        <ele>238.70009963873</ele>
        <time>2017-10-12T13:27:00Z</time>
      </trkpt>
      <trkpt lat="43.60623" lon="0.5197">
        <ele>239.39998457667</ele>
        <time>2017-10-12T13:27:07Z</time>
      </trkpt>
      <trkpt lat="43.60625" lon="0.51959">
        <ele>239.30008925999</ele>
        <time>2017-10-12T13:27:14Z</time>
      </trkpt>
      <trkpt lat="43.60626" lon="0.51948">
        <ele>238.80012033799</ele>
        <time>2017-10-12T13:27:21Z</time>
      </trkpt>
      <trkpt lat="43.60629" lon="0.51937">
        <ele>239.30009924403</ele>
        <time>2017-10-12T13:27:29Z</time>
      </trkpt>
      <trkpt lat="43.6063" lon="0.51925">
        <ele>239.59992385895</ele>
        <time>2017-10-12T13:27:36Z</time>
      </trkpt>
      <trkpt lat="43.60631" lon="0.51914">
        <ele>239.9000265768</ele>
        <time>2017-10-12T13:27:42Z</time>
      </trkpt>
      <trkpt lat="43.60633" lon="0.51902">
        <ele>240.90010233761</ele>
        <time>2017-10-12T13:27:49Z</time>
      </trkpt>
      <trkpt lat="43.60634" lon="0.51891">
        <ele>241.10021307805</ele>
        <time>2017-10-12T13:27:56Z</time>
      </trkpt>
      <trkpt lat="43.60636" lon="0.51879">
        <ele>241.19997468876</ele>
        <time>2017-10-12T13:28:03Z</time>
      </trkpt>
      <trkpt lat="43.60638" lon="0.51868">
        <ele>241.40010850866</ele>
        <time>2017-10-12T13:28:09Z</time>
      </trkpt>
      <trkpt lat="43.60639" lon="0.51856">
        <ele>242.30014531168</ele>
        <time>2017-10-12T13:28:16Z</time>
      </trkpt>
      <trkpt lat="43.60641" lon="0.51845">
        <ele>242.80001853501</ele>
        <time>2017-10-12T13:28:23Z</time>
      </trkpt>
      <trkpt lat="43.60642" lon="0.51833">
        <ele>243.09987598756</ele>
        <time>2017-10-12T13:28:29Z</time>
      </trkpt>
      <trkpt lat="43.60643" lon="0.51821">
        <ele>242.40006462616</ele>
        <time>2017-10-12T13:28:36Z</time>
      </trkpt>
      <trkpt lat="43.60644" lon="0.5181">
        <ele>241.89998940578</ele>
        <time>2017-10-12T13:28:42Z</time>
      </trkpt>
      <trkpt lat="43.60646" lon="0.518">
        <ele>241.50001096462</ele>
        <time>2017-10-12T13:28:48Z</time>
      </trkpt>
      <trkpt lat="43.60648" lon="0.51789">
        <ele>240.90012622357</ele>
        <time>2017-10-12T13:28:55Z</time>
      </trkpt>
      <trkpt lat="43.60649" lon="0.51777">
        <ele>241.59998947712</ele>
        <time>2017-10-12T13:29:02Z</time>
      </trkpt>
      <trkpt lat="43.6065" lon="0.51765">
        <ele>241.60004406561</ele>
        <time>2017-10-12T13:29:09Z</time>
      </trkpt>
      <trkpt lat="43.60652" lon="0.51753">
        <ele>241.70003510362</ele>
        <time>2017-10-12T13:29:16Z</time>
      </trkpt>
      <trkpt lat="43.60653" lon="0.51741">
        <ele>241.40010432694</ele>
        <time>2017-10-12T13:29:23Z</time>
      </trkpt>
      <trkpt lat="43.60655" lon="0.51729">
        <ele>241.20013511463</ele>
        <time>2017-10-12T13:29:30Z</time>
      </trkpt>
      <trkpt lat="43.60656" lon="0.51717">
        <ele>241.10019474845</ele>
        <time>2017-10-12T13:29:37Z</time>
      </trkpt>
      <trkpt lat="43.60657" lon="0.51706">
        <ele>240.70010830979</ele>
        <time>2017-10-12T13:29:44Z</time>
      </trkpt>
      <trkpt lat="43.60658" lon="0.51694">
        <ele>240.90042541701</ele>
        <time>2017-10-12T13:29:52Z</time>
      </trkpt>
      <trkpt lat="43.60665" lon="0.51687">
        <ele>241.10023415778</ele>
        <time>2017-10-12T13:30:22Z</time>
      </trkpt>
      <trkpt lat="43.60662" lon="0.51676">
        <ele>242.59996700656</ele>
        <time>2017-10-12T13:34:22Z</time>
      </trkpt>
      <trkpt lat="43.60658" lon="0.51666">
        <ele>243.80003655426</ele>
        <time>2017-10-12T13:34:30Z</time>
      </trkpt>
      <trkpt lat="43.60653" lon="0.51655">
        <ele>244.89997581518</ele>
        <time>2017-10-12T13:34:38Z</time>
      </trkpt>
      <trkpt lat="43.60649" lon="0.51645">
        <ele>244.6000640495</ele>
        <time>2017-10-12T13:34:46Z</time>
      </trkpt>
      <trkpt lat="43.60644" lon="0.51634">
        <ele>244.60002136536</ele>
        <time>2017-10-12T13:34:54Z</time>
      </trkpt>
      <trkpt lat="43.6064" lon="0.51625">
        <ele>244.69999008423</ele>
        <time>2017-10-12T13:35:01Z</time>
      </trkpt>
      <trkpt lat="43.60638" lon="0.51613">
        <ele>244.60080534117</ele>
        <time>2017-10-12T13:35:10Z</time>
      </trkpt>
      <trkpt lat="43.60632" lon="0.51605">
        <ele>244.49999074905</ele>
        <time>2017-10-12T13:35:15Z</time>
      </trkpt>
      <trkpt lat="43.60628" lon="0.51595">
        <ele>242.60012576617</ele>
        <time>2017-10-12T13:35:23Z</time>
      </trkpt>
      <trkpt lat="43.60624" lon="0.51584">
        <ele>243.10008527523</ele>
        <time>2017-10-12T13:35:31Z</time>
      </trkpt>
      <trkpt lat="43.60619" lon="0.51575">
        <ele>243.40011572398</ele>
        <time>2017-10-12T13:35:38Z</time>
      </trkpt>
      <trkpt lat="43.60615" lon="0.51565">
        <ele>241.5999894592</ele>
        <time>2017-10-12T13:35:45Z</time>
      </trkpt>
      <trkpt lat="43.60611" lon="0.51555">
        <ele>242.29994767219</ele>
        <time>2017-10-12T13:35:52Z</time>
      </trkpt>
      <trkpt lat="43.60608" lon="0.51545">
        <ele>242.09994495217</ele>
        <time>2017-10-12T13:35:59Z</time>
      </trkpt>
      <trkpt lat="43.60605" lon="0.51534">
        <ele>241.09998770206</ele>
        <time>2017-10-12T13:36:12Z</time>
      </trkpt>
      <trkpt lat="43.60601" lon="0.51524">
        <ele>240.70013834003</ele>
        <time>2017-10-12T13:36:19Z</time>
      </trkpt>
      <trkpt lat="43.60597" lon="0.51514">
        <ele>240.90018142512</ele>
        <time>2017-10-12T13:36:27Z</time>
      </trkpt>
      <trkpt lat="43.60593" lon="0.51505">
        <ele>241.10018927859</ele>
        <time>2017-10-12T13:36:35Z</time>
      </trkpt>
      <trkpt lat="43.60588" lon="0.51496">
        <ele>239.80002995914</ele>
        <time>2017-10-12T13:36:42Z</time>
      </trkpt>
      <trkpt lat="43.60584" lon="0.51485">
        <ele>239.99991759736</ele>
        <time>2017-10-12T13:36:49Z</time>
      </trkpt>
      <trkpt lat="43.6058" lon="0.51475">
        <ele>240.20006237554</ele>
        <time>2017-10-12T13:36:56Z</time>
      </trkpt>
      <trkpt lat="43.60575" lon="0.51466">
        <ele>240.29999165549</ele>
        <time>2017-10-12T13:37:04Z</time>
      </trkpt>
      <trkpt lat="43.60571" lon="0.51456">
        <ele>241.20013768739</ele>
        <time>2017-10-12T13:37:13Z</time>
      </trkpt>
      <trkpt lat="43.60567" lon="0.51445">
        <ele>241.90009423957</ele>
        <time>2017-10-12T13:37:21Z</time>
      </trkpt>
      <trkpt lat="43.60563" lon="0.51434">
        <ele>242.49999533937</ele>
        <time>2017-10-12T13:37:28Z</time>
      </trkpt>
      <trkpt lat="43.60558" lon="0.51424">
        <ele>243.29998246264</ele>
        <time>2017-10-12T13:37:35Z</time>
      </trkpt>
      <trkpt lat="43.60554" lon="0.51414">
        <ele>243.70005036828</ele>
        <time>2017-10-12T13:37:42Z</time>
      </trkpt>
      <trkpt lat="43.60549" lon="0.51404">
        <ele>245.69995164857</ele>
        <time>2017-10-12T13:37:49Z</time>
      </trkpt>
      <trkpt lat="43.60545" lon="0.51393">
        <ele>246.20005518144</ele>
        <time>2017-10-12T13:37:56Z</time>
      </trkpt>
      <trkpt lat="43.60541" lon="0.51383">
        <ele>246.70007200945</ele>
        <time>2017-10-12T13:38:03Z</time>
      </trkpt>
      <trkpt lat="43.60536" lon="0.51372">
        <ele>246.80002979625</ele>
        <time>2017-10-12T13:38:11Z</time>
      </trkpt>
      <trkpt lat="43.60531" lon="0.51362">
        <ele>246.40012798437</ele>
        <time>2017-10-12T13:38:19Z</time>
      </trkpt>
      <trkpt lat="43.60526" lon="0.51352">
        <ele>246.50007399706</ele>
        <time>2017-10-12T13:38:27Z</time>
      </trkpt>
      <trkpt lat="43.60523" lon="0.51341">
        <ele>246.69994428587</ele>
        <time>2017-10-12T13:38:34Z</time>
      </trkpt>
      <trkpt lat="43.6052" lon="0.51331">
        <ele>246.69998366549</ele>
        <time>2017-10-12T13:38:40Z</time>
      </trkpt>
      <trkpt lat="43.60516" lon="0.51322">
        <ele>246.59994000627</ele>
        <time>2017-10-12T13:38:47Z</time>
      </trkpt>
      <trkpt lat="43.60512" lon="0.51311">
        <ele>247.00007042632</ele>
        <time>2017-10-12T13:38:54Z</time>
      </trkpt>
      <trkpt lat="43.60509" lon="0.513">
        <ele>247.50009100739</ele>
        <time>2017-10-12T13:39:02Z</time>
      </trkpt>
      <trkpt lat="43.60505" lon="0.51291">
        <ele>245.3000813105</ele>
        <time>2017-10-12T13:39:08Z</time>
      </trkpt>
      <trkpt lat="43.60501" lon="0.5128">
        <ele>245.29996178676</ele>
        <time>2017-10-12T13:39:14Z</time>
      </trkpt>
      <trkpt lat="43.60497" lon="0.51269">
        <ele>245.20002308238</ele>
        <time>2017-10-12T13:39:21Z</time>
      </trkpt>
      <trkpt lat="43.60496" lon="0.51257">
        <ele>244.7998817065</ele>
        <time>2017-10-12T13:39:28Z</time>
      </trkpt>
      <trkpt lat="43.60498" lon="0.51247">
        <ele>244.39987242684</ele>
        <time>2017-10-12T13:39:34Z</time>
      </trkpt>
      <trkpt lat="43.60501" lon="0.51236">
        <ele>244.4001252103</ele>
        <time>2017-10-12T13:39:46Z</time>
      </trkpt>
      <trkpt lat="43.60505" lon="0.51226">
        <ele>244.80004494027</ele>
        <time>2017-10-12T13:39:53Z</time>
      </trkpt>
      <trkpt lat="43.6051" lon="0.51216">
        <ele>245.0000742761</ele>
        <time>2017-10-12T13:40:00Z</time>
      </trkpt>
      <trkpt lat="43.60516" lon="0.51207">
        <ele>245.10002093113</ele>
        <time>2017-10-12T13:40:07Z</time>
      </trkpt>
      <trkpt lat="43.60521" lon="0.51198">
        <ele>244.90012597063</ele>
        <time>2017-10-12T13:40:14Z</time>
      </trkpt>
      <trkpt lat="43.60526" lon="0.51189">
        <ele>244.70014131619</ele>
        <time>2017-10-12T13:40:21Z</time>
      </trkpt>
      <trkpt lat="43.60531" lon="0.51179">
        <ele>244.80003736573</ele>
        <time>2017-10-12T13:40:28Z</time>
      </trkpt>
      <trkpt lat="43.60536" lon="0.51169">
        <ele>245.09998055348</ele>
        <time>2017-10-12T13:40:35Z</time>
      </trkpt>
      <trkpt lat="43.6054" lon="0.51161">
        <ele>245.50001606964</ele>
        <time>2017-10-12T13:40:41Z</time>
      </trkpt>
      <trkpt lat="43.60545" lon="0.5115">
        <ele>247.00008089792</ele>
        <time>2017-10-12T13:40:48Z</time>
      </trkpt>
      <trkpt lat="43.6055" lon="0.51141">
        <ele>247.60009437393</ele>
        <time>2017-10-12T13:40:55Z</time>
      </trkpt>
      <trkpt lat="43.60554" lon="0.51131">
        <ele>247.80016904417</ele>
        <time>2017-10-12T13:41:02Z</time>
      </trkpt>
      <trkpt lat="43.60559" lon="0.51122">
        <ele>247.20000152287</ele>
        <time>2017-10-12T13:41:10Z</time>
      </trkpt>
      <trkpt lat="43.60564" lon="0.51113">
        <ele>246.80017580511</ele>
        <time>2017-10-12T13:41:17Z</time>
      </trkpt>
      <trkpt lat="43.60569" lon="0.51103">
        <ele>246.7001199268</ele>
        <time>2017-10-12T13:41:25Z</time>
      </trkpt>
      <trkpt lat="43.60575" lon="0.51096">
        <ele>245.20020375275</ele>
        <time>2017-10-12T13:41:32Z</time>
      </trkpt>
      <trkpt lat="43.60582" lon="0.51088">
        <ele>244.89999507852</ele>
        <time>2017-10-12T13:41:40Z</time>
      </trkpt>
      <trkpt lat="43.60587" lon="0.51078">
        <ele>243.70000174162</ele>
        <time>2017-10-12T13:41:47Z</time>
      </trkpt>
      <trkpt lat="43.60592" lon="0.5107">
        <ele>242.70019008004</ele>
        <time>2017-10-12T13:41:54Z</time>
      </trkpt>
      <trkpt lat="43.60597" lon="0.51059">
        <ele>241.6001545758</ele>
        <time>2017-10-12T13:42:02Z</time>
      </trkpt>
      <trkpt lat="43.60601" lon="0.5105">
        <ele>241.80018055057</ele>
        <time>2017-10-12T13:42:09Z</time>
      </trkpt>
      <trkpt lat="43.60605" lon="0.51041">
        <ele>242.10015287841</ele>
        <time>2017-10-12T13:42:16Z</time>
      </trkpt>
      <trkpt lat="43.60611" lon="0.51032">
        <ele>241.6002782036</ele>
        <time>2017-10-12T13:42:24Z</time>
      </trkpt>
      <trkpt lat="43.60616" lon="0.51023">
        <ele>240.60014966418</ele>
        <time>2017-10-12T13:42:32Z</time>
      </trkpt>
      <trkpt lat="43.60622" lon="0.51014">
        <ele>239.20022892007</ele>
        <time>2017-10-12T13:42:40Z</time>
      </trkpt>
      <trkpt lat="43.60626" lon="0.51004">
        <ele>238.99992032612</ele>
        <time>2017-10-12T13:42:47Z</time>
      </trkpt>
      <trkpt lat="43.60631" lon="0.50996">
        <ele>239.10002606172</ele>
        <time>2017-10-12T13:42:53Z</time>
      </trkpt>
      <trkpt lat="43.60636" lon="0.50988">
        <ele>238.90009093932</ele>
        <time>2017-10-12T13:43:00Z</time>
      </trkpt>
      <trkpt lat="43.60642" lon="0.5098">
        <ele>238.30008858039</ele>
        <time>2017-10-12T13:43:07Z</time>
      </trkpt>
      <trkpt lat="43.60648" lon="0.50971">
        <ele>237.50004626393</ele>
        <time>2017-10-12T13:43:14Z</time>
      </trkpt>
      <trkpt lat="43.60652" lon="0.50962">
        <ele>236.79993985784</ele>
        <time>2017-10-12T13:43:20Z</time>
      </trkpt>
      <trkpt lat="43.60658" lon="0.50954">
        <ele>235.89989076049</ele>
        <time>2017-10-12T13:43:26Z</time>
      </trkpt>
      <trkpt lat="43.60664" lon="0.50946">
        <ele>235.10019059806</ele>
        <time>2017-10-12T13:43:33Z</time>
      </trkpt>
      <trkpt lat="43.60669" lon="0.50938">
        <ele>235.29998195397</ele>
        <time>2017-10-12T13:43:40Z</time>
      </trkpt>
      <trkpt lat="43.60675" lon="0.50929">
        <ele>234.90005314413</ele>
        <time>2017-10-12T13:43:47Z</time>
      </trkpt>
      <trkpt lat="43.60681" lon="0.5092">
        <ele>234.20009234086</ele>
        <time>2017-10-12T13:43:54Z</time>
      </trkpt>
      <trkpt lat="43.60686" lon="0.50911">
        <ele>232.10020476728</ele>
        <time>2017-10-12T13:44:01Z</time>
      </trkpt>
      <trkpt lat="43.60689" lon="0.50901">
        <ele>231.09994853774</ele>
        <time>2017-10-12T13:44:08Z</time>
      </trkpt>
      <trkpt lat="43.60693" lon="0.50891">
        <ele>231.00003577236</ele>
        <time>2017-10-12T13:44:14Z</time>
      </trkpt>
      <trkpt lat="43.60698" lon="0.50882">
        <ele>230.7001984033</ele>
        <time>2017-10-12T13:44:21Z</time>
      </trkpt>
      <trkpt lat="43.60703" lon="0.50874">
        <ele>231.20018464533</ele>
        <time>2017-10-12T13:44:28Z</time>
      </trkpt>
      <trkpt lat="43.60708" lon="0.50865">
        <ele>232.00010780809</ele>
        <time>2017-10-12T13:44:35Z</time>
      </trkpt>
      <trkpt lat="43.60712" lon="0.50854">
        <ele>231.40004331979</ele>
        <time>2017-10-12T13:44:42Z</time>
      </trkpt>
      <trkpt lat="43.60717" lon="0.50845">
        <ele>231.00007364495</ele>
        <time>2017-10-12T13:44:48Z</time>
      </trkpt>
      <trkpt lat="43.60721" lon="0.50835">
        <ele>230.7000799521</ele>
        <time>2017-10-12T13:44:55Z</time>
      </trkpt>
      <trkpt lat="43.60725" lon="0.50826">
        <ele>231.20003623761</ele>
        <time>2017-10-12T13:45:01Z</time>
      </trkpt>
      <trkpt lat="43.60729" lon="0.50815">
        <ele>231.70017031902</ele>
        <time>2017-10-12T13:45:08Z</time>
      </trkpt>
      <trkpt lat="43.60734" lon="0.50806">
        <ele>231.50023338115</ele>
        <time>2017-10-12T13:45:15Z</time>
      </trkpt>
      <trkpt lat="43.60739" lon="0.50797">
        <ele>230.70023824882</ele>
        <time>2017-10-12T13:45:23Z</time>
      </trkpt>
      <trkpt lat="43.60744" lon="0.50787">
        <ele>230.70009537164</ele>
        <time>2017-10-12T13:45:30Z</time>
      </trkpt>
      <trkpt lat="43.60748" lon="0.50777">
        <ele>230.80012034463</ele>
        <time>2017-10-12T13:45:37Z</time>
      </trkpt>
      <trkpt lat="43.60752" lon="0.50767">
        <ele>229.80020789516</ele>
        <time>2017-10-12T13:45:44Z</time>
      </trkpt>
      <trkpt lat="43.60757" lon="0.50757">
        <ele>229.30024251735</ele>
        <time>2017-10-12T13:45:51Z</time>
      </trkpt>
      <trkpt lat="43.6076" lon="0.50747">
        <ele>229.20023718178</ele>
        <time>2017-10-12T13:45:58Z</time>
      </trkpt>
      <trkpt lat="43.60762" lon="0.50736">
        <ele>229.00017737169</ele>
        <time>2017-10-12T13:46:05Z</time>
      </trkpt>
      <trkpt lat="43.60764" lon="0.50725">
        <ele>228.50029939246</ele>
        <time>2017-10-12T13:46:12Z</time>
      </trkpt>
      <trkpt lat="43.60766" lon="0.50714">
        <ele>227.90018783048</ele>
        <time>2017-10-12T13:46:19Z</time>
      </trkpt>
      <trkpt lat="43.60768" lon="0.50703">
        <ele>227.6003485771</ele>
        <time>2017-10-12T13:46:27Z</time>
      </trkpt>
      <trkpt lat="43.60769" lon="0.50692">
        <ele>226.80019148381</ele>
        <time>2017-10-12T13:46:34Z</time>
      </trkpt>
      <trkpt lat="43.60772" lon="0.5068">
        <ele>227.10017919705</ele>
        <time>2017-10-12T13:46:42Z</time>
      </trkpt>
      <trkpt lat="43.60774" lon="0.50669">
        <ele>226.80020185436</ele>
        <time>2017-10-12T13:46:49Z</time>
      </trkpt>
      <trkpt lat="43.60775" lon="0.50659">
        <ele>225.9001138828</ele>
        <time>2017-10-12T13:46:55Z</time>
      </trkpt>
      <trkpt lat="43.60777" lon="0.50647">
        <ele>225.40028960434</ele>
        <time>2017-10-12T13:47:02Z</time>
      </trkpt>
      <trkpt lat="43.60778" lon="0.50636">
        <ele>225.50009154661</ele>
        <time>2017-10-12T13:47:09Z</time>
      </trkpt>
      <trkpt lat="43.6078" lon="0.50624">
        <ele>224.80016523296</ele>
        <time>2017-10-12T13:47:16Z</time>
      </trkpt>
      <trkpt lat="43.60781" lon="0.50614">
        <ele>223.50033090458</ele>
        <time>2017-10-12T13:47:23Z</time>
      </trkpt>
      <trkpt lat="43.60782" lon="0.50603">
        <ele>222.20025280279</ele>
        <time>2017-10-12T13:47:30Z</time>
      </trkpt>
      <trkpt lat="43.60784" lon="0.50591">
        <ele>221.20038135415</ele>
        <time>2017-10-12T13:47:38Z</time>
      </trkpt>
      <trkpt lat="43.60783" lon="0.5058">
        <ele>221.50026986418</ele>
        <time>2017-10-12T13:47:45Z</time>
      </trkpt>
      <trkpt lat="43.60782" lon="0.50568">
        <ele>220.79999738134</ele>
        <time>2017-10-12T13:47:51Z</time>
      </trkpt>
      <trkpt lat="43.60782" lon="0.50558">
        <ele>220.20022710945</ele>
        <time>2017-10-12T13:47:57Z</time>
      </trkpt>
      <trkpt lat="43.60783" lon="0.50547">
        <ele>219.50032514318</ele>
        <time>2017-10-12T13:48:04Z</time>
      </trkpt>
      <trkpt lat="43.60785" lon="0.50535">
        <ele>217.80047329361</ele>
        <time>2017-10-12T13:48:12Z</time>
      </trkpt>
      <trkpt lat="43.60786" lon="0.50524">
        <ele>217.10038027861</ele>
        <time>2017-10-12T13:48:20Z</time>
      </trkpt>
      <trkpt lat="43.60789" lon="0.50513">
        <ele>217.40016025261</ele>
        <time>2017-10-12T13:48:27Z</time>
      </trkpt>
      <trkpt lat="43.60791" lon="0.50502">
        <ele>218.1000505277</ele>
        <time>2017-10-12T13:48:33Z</time>
      </trkpt>
      <trkpt lat="43.60795" lon="0.50492">
        <ele>218.50016825222</ele>
        <time>2017-10-12T13:48:40Z</time>
      </trkpt>
      <trkpt lat="43.60798" lon="0.50482">
        <ele>217.5001172356</ele>
        <time>2017-10-12T13:48:47Z</time>
      </trkpt>
      <trkpt lat="43.60802" lon="0.50471">
        <ele>217.40027954609</ele>
        <time>2017-10-12T13:48:54Z</time>
      </trkpt>
      <trkpt lat="43.60805" lon="0.50461">
        <ele>216.50027347591</ele>
        <time>2017-10-12T13:49:01Z</time>
      </trkpt>
      <trkpt lat="43.60807" lon="0.5045">
        <ele>216.70030116938</ele>
        <time>2017-10-12T13:49:08Z</time>
      </trkpt>
      <trkpt lat="43.60809" lon="0.50438">
        <ele>217.30025122912</ele>
        <time>2017-10-12T13:49:15Z</time>
      </trkpt>
      <trkpt lat="43.60811" lon="0.50426">
        <ele>217.40012388822</ele>
        <time>2017-10-12T13:49:22Z</time>
      </trkpt>
      <trkpt lat="43.60814" lon="0.50416">
        <ele>217.0002335334</ele>
        <time>2017-10-12T13:49:29Z</time>
      </trkpt>
      <trkpt lat="43.60815" lon="0.50405">
        <ele>217.50032420686</ele>
        <time>2017-10-12T13:49:36Z</time>
      </trkpt>
      <trkpt lat="43.60817" lon="0.50394">
        <ele>217.1002516852</ele>
        <time>2017-10-12T13:49:43Z</time>
      </trkpt>
      <trkpt lat="43.6082" lon="0.50383">
        <ele>216.50017416902</ele>
        <time>2017-10-12T13:49:50Z</time>
      </trkpt>
      <trkpt lat="43.60823" lon="0.50373">
        <ele>215.80037328765</ele>
        <time>2017-10-12T13:49:57Z</time>
      </trkpt>
      <trkpt lat="43.60826" lon="0.50363">
        <ele>215.00016716261</ele>
        <time>2017-10-12T13:50:04Z</time>
      </trkpt>
      <trkpt lat="43.60828" lon="0.50351">
        <ele>215.20021813019</ele>
        <time>2017-10-12T13:50:11Z</time>
      </trkpt>
      <trkpt lat="43.6083" lon="0.50341">
        <ele>216.10035791728</ele>
        <time>2017-10-12T13:50:18Z</time>
      </trkpt>
      <trkpt lat="43.60832" lon="0.5033">
        <ele>216.10033485566</ele>
        <time>2017-10-12T13:50:25Z</time>
      </trkpt>
      <trkpt lat="43.60833" lon="0.50319">
        <ele>215.80035514917</ele>
        <time>2017-10-12T13:50:32Z</time>
      </trkpt>
      <trkpt lat="43.60836" lon="0.50308">
        <ele>215.80027008675</ele>
        <time>2017-10-12T13:50:39Z</time>
      </trkpt>
      <trkpt lat="43.60838" lon="0.50296">
        <ele>215.10010557502</ele>
        <time>2017-10-12T13:50:46Z</time>
      </trkpt>
      <trkpt lat="43.6084" lon="0.50285">
        <ele>214.7001712041</ele>
        <time>2017-10-12T13:50:53Z</time>
      </trkpt>
      <trkpt lat="43.60845" lon="0.50276">
        <ele>212.09981973063</ele>
        <time>2017-10-12T13:50:59Z</time>
      </trkpt>
      <trkpt lat="43.60851" lon="0.50268">
        <ele>209.69990994278</ele>
        <time>2017-10-12T13:51:05Z</time>
      </trkpt>
      <trkpt lat="43.60858" lon="0.50262">
        <ele>209.3999802017</ele>
        <time>2017-10-12T13:51:11Z</time>
      </trkpt>
      <trkpt lat="43.60866" lon="0.50262">
        <ele>203.39992216858</ele>
        <time>2017-10-12T13:51:16Z</time>
      </trkpt>
      <trkpt lat="43.60874" lon="0.50264">
        <ele>200.89992252215</ele>
        <time>2017-10-12T13:51:22Z</time>
      </trkpt>
      <trkpt lat="43.60883" lon="0.50264">
        <ele>201.09995104679</ele>
        <time>2017-10-12T13:51:30Z</time>
      </trkpt>
      <trkpt lat="43.60888" lon="0.50254">
        <ele>201.40061158988</ele>
        <time>2017-10-12T13:51:39Z</time>
      </trkpt>
      <trkpt lat="43.60891" lon="0.50243">
        <ele>201.90037148677</ele>
        <time>2017-10-12T13:51:48Z</time>
      </trkpt>
      <trkpt lat="43.60894" lon="0.50232">
        <ele>201.40031216264</ele>
        <time>2017-10-12T13:51:56Z</time>
      </trkpt>
      <trkpt lat="43.60896" lon="0.50221">
        <ele>200.20035132914</ele>
        <time>2017-10-12T13:52:04Z</time>
      </trkpt>
      <trkpt lat="43.60899" lon="0.50211">
        <ele>199.70021422692</ele>
        <time>2017-10-12T13:52:12Z</time>
      </trkpt>
      <trkpt lat="43.60901" lon="0.50199">
        <ele>199.80039064771</ele>
        <time>2017-10-12T13:52:20Z</time>
      </trkpt>
      <trkpt lat="43.60902" lon="0.50187">
        <ele>200.40131367552</ele>
        <time>2017-10-12T13:52:52Z</time>
      </trkpt>
      <trkpt lat="43.60905" lon="0.50177">
        <ele>196.60041570573</ele>
        <time>2017-10-12T13:53:41Z</time>
      </trkpt>
      <trkpt lat="43.60911" lon="0.50168">
        <ele>197.60050732258</ele>
        <time>2017-10-12T13:53:59Z</time>
      </trkpt>
      <trkpt lat="43.60903" lon="0.50165">
        <ele>200.19971407472</ele>
        <time>2017-10-12T14:00:49Z</time>
      </trkpt>
      <trkpt lat="43.60896" lon="0.5016">
        <ele>200.799953844</ele>
        <time>2017-10-12T14:00:58Z</time>
      </trkpt>
      <trkpt lat="43.60889" lon="0.50153">
        <ele>200.19971683047</ele>
        <time>2017-10-12T14:01:06Z</time>
      </trkpt>
      <trkpt lat="43.60886" lon="0.50143">
        <ele>200.19982669217</ele>
        <time>2017-10-12T14:01:13Z</time>
      </trkpt>
      <trkpt lat="43.60886" lon="0.50132">
        <ele>200.09988356698</ele>
        <time>2017-10-12T14:01:20Z</time>
      </trkpt>
      <trkpt lat="43.60888" lon="0.5012">
        <ele>200.10007118236</ele>
        <time>2017-10-12T14:01:28Z</time>
      </trkpt>
      <trkpt lat="43.60889" lon="0.50108">
        <ele>200.00018012639</ele>
        <time>2017-10-12T14:01:36Z</time>
      </trkpt>
      <trkpt lat="43.6089" lon="0.50097">
        <ele>200.60014309963</ele>
        <time>2017-10-12T14:01:44Z</time>
      </trkpt>
      <trkpt lat="43.60893" lon="0.50086">
        <ele>200.40030899492</ele>
        <time>2017-10-12T14:01:52Z</time>
      </trkpt>
      <trkpt lat="43.60894" lon="0.50075">
        <ele>199.90063588392</ele>
        <time>2017-10-12T14:02:00Z</time>
      </trkpt>
      <trkpt lat="43.60896" lon="0.50063">
        <ele>200.10028102644</ele>
        <time>2017-10-12T14:02:09Z</time>
      </trkpt>
      <trkpt lat="43.60895" lon="0.50051">
        <ele>199.30021169501</ele>
        <time>2017-10-12T14:02:17Z</time>
      </trkpt>
      <trkpt lat="43.6089" lon="0.50041">
        <ele>199.2001620397</ele>
        <time>2017-10-12T14:02:25Z</time>
      </trkpt>
      <trkpt lat="43.60883" lon="0.50034">
        <ele>199.2002800288</ele>
        <time>2017-10-12T14:02:33Z</time>
      </trkpt>
      <trkpt lat="43.60874" lon="0.50034">
        <ele>199.50012752463</ele>
        <time>2017-10-12T14:02:41Z</time>
      </trkpt>
      <trkpt lat="43.60866" lon="0.50035">
        <ele>199.50014455183</ele>
        <time>2017-10-12T14:02:49Z</time>
      </trkpt>
      <trkpt lat="43.60858" lon="0.50038">
        <ele>199.79986205263</ele>
        <time>2017-10-12T14:02:57Z</time>
      </trkpt>
      <trkpt lat="43.60851" lon="0.50046">
        <ele>199.90001464469</ele>
        <time>2017-10-12T14:03:06Z</time>
      </trkpt>
      <trkpt lat="43.60846" lon="0.50055">
        <ele>199.70008290474</ele>
        <time>2017-10-12T14:03:14Z</time>
      </trkpt>
      <trkpt lat="43.60841" lon="0.50064">
        <ele>199.99999738128</ele>
        <time>2017-10-12T14:03:21Z</time>
      </trkpt>
      <trkpt lat="43.60834" lon="0.50071">
        <ele>200.39960457511</ele>
        <time>2017-10-12T14:03:29Z</time>
      </trkpt>
      <trkpt lat="43.60828" lon="0.50079">
        <ele>201.09967202022</ele>
        <time>2017-10-12T14:03:38Z</time>
      </trkpt>
      <trkpt lat="43.60822" lon="0.50086">
        <ele>201.69986610666</ele>
        <time>2017-10-12T14:03:46Z</time>
      </trkpt>
      <trkpt lat="43.60816" lon="0.50094">
        <ele>202.49954618643</ele>
        <time>2017-10-12T14:03:56Z</time>
      </trkpt>
      <trkpt lat="43.60808" lon="0.501">
        <ele>202.39969523413</ele>
        <time>2017-10-12T14:04:05Z</time>
      </trkpt>
      <trkpt lat="43.60802" lon="0.50107">
        <ele>201.29958182713</ele>
        <time>2017-10-12T14:04:14Z</time>
      </trkpt>
      <trkpt lat="43.60794" lon="0.50113">
        <ele>200.69973535878</ele>
        <time>2017-10-12T14:04:23Z</time>
      </trkpt>
      <trkpt lat="43.60787" lon="0.50117">
        <ele>200.299965708</ele>
        <time>2017-10-12T14:04:31Z</time>
      </trkpt>
      <trkpt lat="43.60779" lon="0.50121">
        <ele>200.39986921258</ele>
        <time>2017-10-12T14:04:39Z</time>
      </trkpt>
      <trkpt lat="43.60771" lon="0.50126">
        <ele>200.49980700984</ele>
        <time>2017-10-12T14:04:48Z</time>
      </trkpt>
      <trkpt lat="43.60764" lon="0.50131">
        <ele>200.19984064224</ele>
        <time>2017-10-12T14:04:56Z</time>
      </trkpt>
      <trkpt lat="43.60758" lon="0.50139">
        <ele>199.7996388662</ele>
        <time>2017-10-12T14:05:04Z</time>
      </trkpt>
      <trkpt lat="43.60752" lon="0.50147">
        <ele>199.49962236998</ele>
        <time>2017-10-12T14:05:13Z</time>
      </trkpt>
      <trkpt lat="43.60745" lon="0.50156">
        <ele>198.39996994168</ele>
        <time>2017-10-12T14:05:22Z</time>
      </trkpt>
      <trkpt lat="43.60742" lon="0.50166">
        <ele>198.79976828343</ele>
        <time>2017-10-12T14:05:30Z</time>
      </trkpt>
      <trkpt lat="43.60736" lon="0.50174">
        <ele>198.19979698832</ele>
        <time>2017-10-12T14:05:38Z</time>
      </trkpt>
      <trkpt lat="43.60729" lon="0.50182">
        <ele>198.39951767651</ele>
        <time>2017-10-12T14:05:46Z</time>
      </trkpt>
      <trkpt lat="43.60722" lon="0.50187">
        <ele>198.59969488782</ele>
        <time>2017-10-12T14:05:53Z</time>
      </trkpt>
      <trkpt lat="43.60714" lon="0.50191">
        <ele>198.49982523532</ele>
        <time>2017-10-12T14:06:00Z</time>
      </trkpt>
      <trkpt lat="43.60705" lon="0.50193">
        <ele>197.89955301684</ele>
        <time>2017-10-12T14:06:08Z</time>
      </trkpt>
      <trkpt lat="43.60697" lon="0.50191">
        <ele>197.89977482526</ele>
        <time>2017-10-12T14:06:16Z</time>
      </trkpt>
      <trkpt lat="43.60689" lon="0.50186">
        <ele>198.89986551606</ele>
        <time>2017-10-12T14:06:23Z</time>
      </trkpt>
      <trkpt lat="43.60682" lon="0.5018">
        <ele>199.49994496642</ele>
        <time>2017-10-12T14:06:30Z</time>
      </trkpt>
      <trkpt lat="43.60674" lon="0.50176">
        <ele>198.90012224065</ele>
        <time>2017-10-12T14:06:37Z</time>
      </trkpt>
      <trkpt lat="43.60667" lon="0.50171">
        <ele>198.99993562897</ele>
        <time>2017-10-12T14:06:43Z</time>
      </trkpt>
      <trkpt lat="43.6066" lon="0.50166">
        <ele>199.19994246952</ele>
        <time>2017-10-12T14:06:50Z</time>
      </trkpt>
      <trkpt lat="43.60653" lon="0.5016">
        <ele>199.50003659783</ele>
        <time>2017-10-12T14:06:57Z</time>
      </trkpt>
      <trkpt lat="43.60645" lon="0.50156">
        <ele>199.10006537687</ele>
        <time>2017-10-12T14:07:05Z</time>
      </trkpt>
      <trkpt lat="43.60636" lon="0.50154">
        <ele>198.39965676613</ele>
        <time>2017-10-12T14:07:14Z</time>
      </trkpt>
      <trkpt lat="43.60628" lon="0.50153">
        <ele>197.99984899981</ele>
        <time>2017-10-12T14:07:22Z</time>
      </trkpt>
      <trkpt lat="43.6062" lon="0.50153">
        <ele>198.19998761352</ele>
        <time>2017-10-12T14:07:29Z</time>
      </trkpt>
      <trkpt lat="43.60612" lon="0.50152">
        <ele>198.39988997529</ele>
        <time>2017-10-12T14:07:36Z</time>
      </trkpt>
      <trkpt lat="43.60604" lon="0.50152">
        <ele>198.20009248217</ele>
        <time>2017-10-12T14:07:43Z</time>
      </trkpt>
      <trkpt lat="43.60596" lon="0.50153">
        <ele>197.89999327804</ele>
        <time>2017-10-12T14:07:50Z</time>
      </trkpt>
      <trkpt lat="43.60587" lon="0.50154">
        <ele>197.90005459124</ele>
        <time>2017-10-12T14:07:57Z</time>
      </trkpt>
      <trkpt lat="43.60579" lon="0.50156">
        <ele>197.69991019138</ele>
        <time>2017-10-12T14:08:04Z</time>
      </trkpt>
      <trkpt lat="43.60571" lon="0.50159">
        <ele>197.29990648321</ele>
        <time>2017-10-12T14:08:12Z</time>
      </trkpt>
      <trkpt lat="43.60562" lon="0.50162">
        <ele>196.79976761429</ele>
        <time>2017-10-12T14:08:20Z</time>
      </trkpt>
      <trkpt lat="43.60554" lon="0.50168">
        <ele>196.8999734422</ele>
        <time>2017-10-12T14:08:28Z</time>
      </trkpt>
      <trkpt lat="43.60547" lon="0.50173">
        <ele>197.09986410614</ele>
        <time>2017-10-12T14:08:35Z</time>
      </trkpt>
      <trkpt lat="43.6054" lon="0.50179">
        <ele>197.29990127911</ele>
        <time>2017-10-12T14:08:42Z</time>
      </trkpt>
      <trkpt lat="43.60534" lon="0.50184">
        <ele>197.79972517288</ele>
        <time>2017-10-12T14:08:49Z</time>
      </trkpt>
      <trkpt lat="43.60527" lon="0.5019">
        <ele>198.19947083084</ele>
        <time>2017-10-12T14:08:56Z</time>
      </trkpt>
      <trkpt lat="43.60519" lon="0.50196">
        <ele>198.89969810123</ele>
        <time>2017-10-12T14:09:03Z</time>
      </trkpt>
      <trkpt lat="43.60512" lon="0.50201">
        <ele>198.99952459972</ele>
        <time>2017-10-12T14:09:10Z</time>
      </trkpt>
      <trkpt lat="43.60505" lon="0.50208">
        <ele>199.49962078729</ele>
        <time>2017-10-12T14:09:17Z</time>
      </trkpt>
      <trkpt lat="43.605" lon="0.50216">
        <ele>199.39961844273</ele>
        <time>2017-10-12T14:09:24Z</time>
      </trkpt>
      <trkpt lat="43.60492" lon="0.50222">
        <ele>199.69949908348</ele>
        <time>2017-10-12T14:09:32Z</time>
      </trkpt>
      <trkpt lat="43.60486" lon="0.50229">
        <ele>200.49934688329</ele>
        <time>2017-10-12T14:09:40Z</time>
      </trkpt>
      <trkpt lat="43.60478" lon="0.50236">
        <ele>200.09940617385</ele>
        <time>2017-10-12T14:09:48Z</time>
      </trkpt>
      <trkpt lat="43.60471" lon="0.50243">
        <ele>200.39942404286</ele>
        <time>2017-10-12T14:09:56Z</time>
      </trkpt>
      <trkpt lat="43.60464" lon="0.5025">
        <ele>200.19965505911</ele>
        <time>2017-10-12T14:10:04Z</time>
      </trkpt>
      <trkpt lat="43.60457" lon="0.50257">
        <ele>200.19985988407</ele>
        <time>2017-10-12T14:10:11Z</time>
      </trkpt>
      <trkpt lat="43.6045" lon="0.50263">
        <ele>200.09969357733</ele>
        <time>2017-10-12T14:10:18Z</time>
      </trkpt>
      <trkpt lat="43.60443" lon="0.50268">
        <ele>200.49966484042</ele>
        <time>2017-10-12T14:10:26Z</time>
      </trkpt>
      <trkpt lat="43.60435" lon="0.50271">
        <ele>200.29969272467</ele>
        <time>2017-10-12T14:10:33Z</time>
      </trkpt>
      <trkpt lat="43.60428" lon="0.50272">
        <ele>200.50002209978</ele>
        <time>2017-10-12T14:10:39Z</time>
      </trkpt>
      <trkpt lat="43.6042" lon="0.50272">
        <ele>200.50015136558</ele>
        <time>2017-10-12T14:10:44Z</time>
      </trkpt>
      <trkpt lat="43.60412" lon="0.50269">
        <ele>201.00029204507</ele>
        <time>2017-10-12T14:10:51Z</time>
      </trkpt>
      <trkpt lat="43.60403" lon="0.50266">
        <ele>201.79976554836</ele>
        <time>2017-10-12T14:10:59Z</time>
      </trkpt>
      <trkpt lat="43.60399" lon="0.50256">
        <ele>203.29971477084</ele>
        <time>2017-10-12T14:11:07Z</time>
      </trkpt>
      <trkpt lat="43.6039" lon="0.50253">
        <ele>205.79982896136</ele>
        <time>2017-10-12T14:16:10Z</time>
      </trkpt>
      <trkpt lat="43.60382" lon="0.50257">
        <ele>206.49982905755</ele>
        <time>2017-10-12T14:16:22Z</time>
      </trkpt>
      <trkpt lat="43.60374" lon="0.50259">
        <ele>206.49948609921</ele>
        <time>2017-10-12T14:16:32Z</time>
      </trkpt>
      <trkpt lat="43.60366" lon="0.50258">
        <ele>206.29945754871</ele>
        <time>2017-10-12T14:16:44Z</time>
      </trkpt>
      <trkpt lat="43.60357" lon="0.50255">
        <ele>206.69982079939</ele>
        <time>2017-10-12T14:16:55Z</time>
      </trkpt>
      <trkpt lat="43.60348" lon="0.50255">
        <ele>205.79973038472</ele>
        <time>2017-10-12T14:17:05Z</time>
      </trkpt>
      <trkpt lat="43.6034" lon="0.50257">
        <ele>204.79979998264</ele>
        <time>2017-10-12T14:17:15Z</time>
      </trkpt>
      <trkpt lat="43.60332" lon="0.50261">
        <ele>204.29962998298</ele>
        <time>2017-10-12T14:17:24Z</time>
      </trkpt>
      <trkpt lat="43.60325" lon="0.50267">
        <ele>203.39988462358</ele>
        <time>2017-10-12T14:17:33Z</time>
      </trkpt>
      <trkpt lat="43.60317" lon="0.50272">
        <ele>203.19941594062</ele>
        <time>2017-10-12T14:17:42Z</time>
      </trkpt>
      <trkpt lat="43.6031" lon="0.50276">
        <ele>202.59959185523</ele>
        <time>2017-10-12T14:17:50Z</time>
      </trkpt>
      <trkpt lat="43.60302" lon="0.50281">
        <ele>202.39972567979</ele>
        <time>2017-10-12T14:17:58Z</time>
      </trkpt>
      <trkpt lat="43.60294" lon="0.50285">
        <ele>202.89967677038</ele>
        <time>2017-10-12T14:18:05Z</time>
      </trkpt>
      <trkpt lat="43.60287" lon="0.50291">
        <ele>203.19987118687</ele>
        <time>2017-10-12T14:18:13Z</time>
      </trkpt>
      <trkpt lat="43.60281" lon="0.50299">
        <ele>203.09981077478</ele>
        <time>2017-10-12T14:18:20Z</time>
      </trkpt>
      <trkpt lat="43.60275" lon="0.50307">
        <ele>202.59985431662</ele>
        <time>2017-10-12T14:18:28Z</time>
      </trkpt>
      <trkpt lat="43.60268" lon="0.50314">
        <ele>202.5999996998</ele>
        <time>2017-10-12T14:18:35Z</time>
      </trkpt>
      <trkpt lat="43.60261" lon="0.50321">
        <ele>202.90001634929</ele>
        <time>2017-10-12T14:18:42Z</time>
      </trkpt>
      <trkpt lat="43.60254" lon="0.50326">
        <ele>203.29978573772</ele>
        <time>2017-10-12T14:18:49Z</time>
      </trkpt>
      <trkpt lat="43.60246" lon="0.50328">
        <ele>204.09979586343</ele>
        <time>2017-10-12T14:18:57Z</time>
      </trkpt>
      <trkpt lat="43.60238" lon="0.50329">
        <ele>203.59981535479</ele>
        <time>2017-10-12T14:19:04Z</time>
      </trkpt>
      <trkpt lat="43.60229" lon="0.5033">
        <ele>203.29983389372</ele>
        <time>2017-10-12T14:19:13Z</time>
      </trkpt>
      <trkpt lat="43.60221" lon="0.5033">
        <ele>201.99989537881</ele>
        <time>2017-10-12T14:19:22Z</time>
      </trkpt>
      <trkpt lat="43.60212" lon="0.50334">
        <ele>201.79994554932</ele>
        <time>2017-10-12T14:19:31Z</time>
      </trkpt>
      <trkpt lat="43.60203" lon="0.50337">
        <ele>201.69992364489</ele>
        <time>2017-10-12T14:19:40Z</time>
      </trkpt>
      <trkpt lat="43.60195" lon="0.5034">
        <ele>200.4999223109</ele>
        <time>2017-10-12T14:19:48Z</time>
      </trkpt>
      <trkpt lat="43.60187" lon="0.50343">
        <ele>200.39993840932</ele>
        <time>2017-10-12T14:19:57Z</time>
      </trkpt>
      <trkpt lat="43.60179" lon="0.50344">
        <ele>200.09996227819</ele>
        <time>2017-10-12T14:20:05Z</time>
      </trkpt>
      <trkpt lat="43.6017" lon="0.50346">
        <ele>200.10003220493</ele>
        <time>2017-10-12T14:20:14Z</time>
      </trkpt>
      <trkpt lat="43.60162" lon="0.50347">
        <ele>199.5999970697</ele>
        <time>2017-10-12T14:20:21Z</time>
      </trkpt>
      <trkpt lat="43.60155" lon="0.50349">
        <ele>199.79989071331</ele>
        <time>2017-10-12T14:20:28Z</time>
      </trkpt>
      <trkpt lat="43.60146" lon="0.50349">
        <ele>199.40004844057</ele>
        <time>2017-10-12T14:20:35Z</time>
      </trkpt>
      <trkpt lat="43.60138" lon="0.50351">
        <ele>199.60017488688</ele>
        <time>2017-10-12T14:20:42Z</time>
      </trkpt>
      <trkpt lat="43.6013" lon="0.50355">
        <ele>199.70007585067</ele>
        <time>2017-10-12T14:20:49Z</time>
      </trkpt>
      <trkpt lat="43.60122" lon="0.50359">
        <ele>201.09987395823</ele>
        <time>2017-10-12T14:20:57Z</time>
      </trkpt>
      <trkpt lat="43.60115" lon="0.50364">
        <ele>202.09979547118</ele>
        <time>2017-10-12T14:21:04Z</time>
      </trkpt>
      <trkpt lat="43.60108" lon="0.5037">
        <ele>202.79997018912</ele>
        <time>2017-10-12T14:21:11Z</time>
      </trkpt>
      <trkpt lat="43.601" lon="0.50375">
        <ele>203.99992515483</ele>
        <time>2017-10-12T14:21:18Z</time>
      </trkpt>
      <trkpt lat="43.60091" lon="0.50377">
        <ele>204.29987088585</ele>
        <time>2017-10-12T14:21:25Z</time>
      </trkpt>
      <trkpt lat="43.60083" lon="0.50376">
        <ele>205.1997590062</ele>
        <time>2017-10-12T14:21:33Z</time>
      </trkpt>
      <trkpt lat="43.60074" lon="0.50377">
        <ele>205.19992496428</ele>
        <time>2017-10-12T14:21:42Z</time>
      </trkpt>
      <trkpt lat="43.60066" lon="0.50379">
        <ele>205.40001963763</ele>
        <time>2017-10-12T14:21:50Z</time>
      </trkpt>
      <trkpt lat="43.60058" lon="0.50382">
        <ele>205.79988677839</ele>
        <time>2017-10-12T14:21:59Z</time>
      </trkpt>
      <trkpt lat="43.60051" lon="0.50388">
        <ele>205.49995265218</ele>
        <time>2017-10-12T14:22:08Z</time>
      </trkpt>
      <trkpt lat="43.60045" lon="0.50395">
        <ele>206.49999815304</ele>
        <time>2017-10-12T14:22:15Z</time>
      </trkpt>
      <trkpt lat="43.60038" lon="0.50402">
        <ele>206.40001092154</ele>
        <time>2017-10-12T14:22:21Z</time>
      </trkpt>
      <trkpt lat="43.60031" lon="0.50408">
        <ele>206.2998458385</ele>
        <time>2017-10-12T14:22:29Z</time>
      </trkpt>
      <trkpt lat="43.60025" lon="0.50414">
        <ele>206.59991658148</ele>
        <time>2017-10-12T14:22:37Z</time>
      </trkpt>
      <trkpt lat="43.60018" lon="0.50422">
        <ele>206.80009393409</ele>
        <time>2017-10-12T14:22:44Z</time>
      </trkpt>
      <trkpt lat="43.60011" lon="0.50429">
        <ele>207.19993025836</ele>
        <time>2017-10-12T14:22:51Z</time>
      </trkpt>
      <trkpt lat="43.60004" lon="0.50435">
        <ele>207.79991561573</ele>
        <time>2017-10-12T14:22:58Z</time>
      </trkpt>
      <trkpt lat="43.59997" lon="0.50441">
        <ele>208.59984111196</ele>
        <time>2017-10-12T14:23:05Z</time>
      </trkpt>
      <trkpt lat="43.59989" lon="0.50445">
        <ele>207.99993188924</ele>
        <time>2017-10-12T14:23:12Z</time>
      </trkpt>
      <trkpt lat="43.59981" lon="0.50447">
        <ele>206.79969625095</ele>
        <time>2017-10-12T14:23:20Z</time>
      </trkpt>
      <trkpt lat="43.59973" lon="0.50449">
        <ele>204.19984220419</ele>
        <time>2017-10-12T14:23:33Z</time>
      </trkpt>
      <trkpt lat="43.59965" lon="0.50453">
        <ele>203.39987451647</ele>
        <time>2017-10-12T14:23:41Z</time>
      </trkpt>
      <trkpt lat="43.59958" lon="0.50457">
        <ele>203.50006197902</ele>
        <time>2017-10-12T14:23:48Z</time>
      </trkpt>
      <trkpt lat="43.5995" lon="0.50462">
        <ele>202.79985987595</ele>
        <time>2017-10-12T14:23:56Z</time>
      </trkpt>
      <trkpt lat="43.59943" lon="0.50467">
        <ele>202.09988923244</ele>
        <time>2017-10-12T14:24:04Z</time>
      </trkpt>
      <trkpt lat="43.59936" lon="0.50472">
        <ele>201.50011547133</ele>
        <time>2017-10-12T14:24:10Z</time>
      </trkpt>
      <trkpt lat="43.59929" lon="0.50478">
        <ele>201.40011584713</ele>
        <time>2017-10-12T14:24:16Z</time>
      </trkpt>
      <trkpt lat="43.59922" lon="0.50483">
        <ele>201.19989029383</ele>
        <time>2017-10-12T14:24:23Z</time>
      </trkpt>
      <trkpt lat="43.59914" lon="0.50487">
        <ele>200.29994257195</ele>
        <time>2017-10-12T14:24:31Z</time>
      </trkpt>
      <trkpt lat="43.59906" lon="0.50493">
        <ele>200.4999100006</ele>
        <time>2017-10-12T14:24:40Z</time>
      </trkpt>
      <trkpt lat="43.59899" lon="0.50497">
        <ele>200.59941737802</ele>
        <time>2017-10-12T14:26:23Z</time>
      </trkpt>
      <trkpt lat="43.59892" lon="0.50502">
        <ele>200.99986223612</ele>
        <time>2017-10-12T14:26:32Z</time>
      </trkpt>
      <trkpt lat="43.59884" lon="0.50509">
        <ele>201.10010525658</ele>
        <time>2017-10-12T14:26:42Z</time>
      </trkpt>
      <trkpt lat="43.59877" lon="0.50515">
        <ele>201.70003855756</ele>
        <time>2017-10-12T14:26:49Z</time>
      </trkpt>
      <trkpt lat="43.59869" lon="0.50516">
        <ele>201.89989534005</ele>
        <time>2017-10-12T14:26:56Z</time>
      </trkpt>
      <trkpt lat="43.5986" lon="0.50515">
        <ele>202.09983565744</ele>
        <time>2017-10-12T14:27:03Z</time>
      </trkpt>
      <trkpt lat="43.59851" lon="0.50515">
        <ele>202.29995350587</ele>
        <time>2017-10-12T14:27:11Z</time>
      </trkpt>
      <trkpt lat="43.59845" lon="0.50523">
        <ele>202.90030657194</ele>
        <time>2017-10-12T14:27:18Z</time>
      </trkpt>
      <trkpt lat="43.59838" lon="0.50529">
        <ele>203.90001400352</ele>
        <time>2017-10-12T14:27:25Z</time>
      </trkpt>
      <trkpt lat="43.59831" lon="0.50536">
        <ele>205.10003459796</ele>
        <time>2017-10-12T14:27:34Z</time>
      </trkpt>
      <trkpt lat="43.59825" lon="0.50544">
        <ele>206.50014088485</ele>
        <time>2017-10-12T14:27:41Z</time>
      </trkpt>
      <trkpt lat="43.59819" lon="0.50551">
        <ele>207.89992255798</ele>
        <time>2017-10-12T14:27:48Z</time>
      </trkpt>
      <trkpt lat="43.59812" lon="0.50556">
        <ele>208.89984871383</ele>
        <time>2017-10-12T14:27:56Z</time>
      </trkpt>
      <trkpt lat="43.59803" lon="0.5056">
        <ele>209.70005524649</ele>
        <time>2017-10-12T14:28:04Z</time>
      </trkpt>
      <trkpt lat="43.59796" lon="0.50565">
        <ele>210.80018930967</ele>
        <time>2017-10-12T14:28:10Z</time>
      </trkpt>
      <trkpt lat="43.59789" lon="0.50568">
        <ele>211.6999998451</ele>
        <time>2017-10-12T14:28:16Z</time>
      </trkpt>
      <trkpt lat="43.59781" lon="0.50572">
        <ele>212.40003598824</ele>
        <time>2017-10-12T14:28:23Z</time>
      </trkpt>
      <trkpt lat="43.59775" lon="0.50579">
        <ele>213.2001248526</ele>
        <time>2017-10-12T14:28:30Z</time>
      </trkpt>
      <trkpt lat="43.59769" lon="0.50586">
        <ele>214.00011253245</ele>
        <time>2017-10-12T14:28:37Z</time>
      </trkpt>
      <trkpt lat="43.59762" lon="0.50592">
        <ele>214.59983535397</ele>
        <time>2017-10-12T14:28:44Z</time>
      </trkpt>
      <trkpt lat="43.59754" lon="0.50596">
        <ele>215.89995128172</ele>
        <time>2017-10-12T14:28:51Z</time>
      </trkpt>
      <trkpt lat="43.59746" lon="0.506">
        <ele>215.69981232758</ele>
        <time>2017-10-12T14:29:00Z</time>
      </trkpt>
      <trkpt lat="43.59738" lon="0.50603">
        <ele>216.19988281951</ele>
        <time>2017-10-12T14:29:07Z</time>
      </trkpt>
      <trkpt lat="43.5973" lon="0.50605">
        <ele>216.19997481888</ele>
        <time>2017-10-12T14:29:14Z</time>
      </trkpt>
      <trkpt lat="43.59722" lon="0.50608">
        <ele>216.59975601148</ele>
        <time>2017-10-12T14:29:22Z</time>
      </trkpt>
      <trkpt lat="43.59713" lon="0.5061">
        <ele>215.89983792623</ele>
        <time>2017-10-12T14:29:30Z</time>
      </trkpt>
      <trkpt lat="43.59706" lon="0.50616">
        <ele>216.70026732366</ele>
        <time>2017-10-12T14:29:37Z</time>
      </trkpt>
      <trkpt lat="43.59699" lon="0.50621">
        <ele>217.40025617867</ele>
        <time>2017-10-12T14:29:44Z</time>
      </trkpt>
      <trkpt lat="43.59691" lon="0.50626">
        <ele>218.09996802282</ele>
        <time>2017-10-12T14:29:51Z</time>
      </trkpt>
      <trkpt lat="43.59683" lon="0.50629">
        <ele>218.29991604792</ele>
        <time>2017-10-12T14:29:59Z</time>
      </trkpt>
      <trkpt lat="43.59675" lon="0.5063">
        <ele>218.59955860465</ele>
        <time>2017-10-12T14:30:08Z</time>
      </trkpt>
      <trkpt lat="43.59666" lon="0.5063">
        <ele>217.79979970791</ele>
        <time>2017-10-12T14:30:16Z</time>
      </trkpt>
      <trkpt lat="43.59659" lon="0.50633">
        <ele>217.49997320695</ele>
        <time>2017-10-12T14:30:23Z</time>
      </trkpt>
      <trkpt lat="43.5965" lon="0.50636">
        <ele>217.29980088419</ele>
        <time>2017-10-12T14:30:30Z</time>
      </trkpt>
      <trkpt lat="43.59642" lon="0.50637">
        <ele>217.39981721547</ele>
        <time>2017-10-12T14:30:38Z</time>
      </trkpt>
      <trkpt lat="43.59634" lon="0.50642">
        <ele>217.39975260447</ele>
        <time>2017-10-12T14:30:48Z</time>
      </trkpt>
      <trkpt lat="43.59626" lon="0.50647">
        <ele>216.99987056271</ele>
        <time>2017-10-12T14:30:57Z</time>
      </trkpt>
      <trkpt lat="43.59619" lon="0.50641">
        <ele>215.39980198968</ele>
        <time>2017-10-12T14:31:06Z</time>
      </trkpt>
      <trkpt lat="43.5962" lon="0.50629">
        <ele>213.20034509008</ele>
        <time>2017-10-12T14:31:19Z</time>
      </trkpt>
      <trkpt lat="43.59611" lon="0.50625">
        <ele>213.00073688741</ele>
        <time>2017-10-12T14:31:37Z</time>
      </trkpt>
      <trkpt lat="43.59603" lon="0.50627">
        <ele>212.80043177979</ele>
        <time>2017-10-12T14:31:43Z</time>
      </trkpt>
      <trkpt lat="43.59595" lon="0.5063">
        <ele>211.69992287479</ele>
        <time>2017-10-12T14:31:51Z</time>
      </trkpt>
      <trkpt lat="43.59588" lon="0.50637">
        <ele>211.29949883871</ele>
        <time>2017-10-12T14:32:02Z</time>
      </trkpt>
      <trkpt lat="43.5958" lon="0.5064">
        <ele>210.29957459437</ele>
        <time>2017-10-12T14:32:11Z</time>
      </trkpt>
      <trkpt lat="43.59571" lon="0.5064">
        <ele>211.39991929136</ele>
        <time>2017-10-12T14:32:19Z</time>
      </trkpt>
      <trkpt lat="43.59563" lon="0.50641">
        <ele>211.99984118366</ele>
        <time>2017-10-12T14:32:27Z</time>
      </trkpt>
      <trkpt lat="43.59555" lon="0.50642">
        <ele>210.80048214181</ele>
        <time>2017-10-12T14:32:34Z</time>
      </trkpt>
      <trkpt lat="43.59547" lon="0.50645">
        <ele>211.29998537097</ele>
        <time>2017-10-12T14:32:41Z</time>
      </trkpt>
      <trkpt lat="43.59539" lon="0.50647">
        <ele>210.89999075415</ele>
        <time>2017-10-12T14:32:54Z</time>
      </trkpt>
      <trkpt lat="43.59532" lon="0.50655">
        <ele>210.60029707021</ele>
        <time>2017-10-12T14:33:01Z</time>
      </trkpt>
      <trkpt lat="43.59527" lon="0.50663">
        <ele>210.70003844133</ele>
        <time>2017-10-12T14:33:07Z</time>
      </trkpt>
      <trkpt lat="43.59518" lon="0.50663">
        <ele>209.29991958604</ele>
        <time>2017-10-12T14:33:14Z</time>
      </trkpt>
      <trkpt lat="43.59509" lon="0.50662">
        <ele>209.0998704153</ele>
        <time>2017-10-12T14:33:21Z</time>
      </trkpt>
      <trkpt lat="43.59501" lon="0.50658">
        <ele>209.2997752462</ele>
        <time>2017-10-12T14:33:28Z</time>
      </trkpt>
      <trkpt lat="43.59494" lon="0.50652">
        <ele>208.70013487361</ele>
        <time>2017-10-12T14:33:36Z</time>
      </trkpt>
      <trkpt lat="43.59485" lon="0.50651">
        <ele>207.80001350426</ele>
        <time>2017-10-12T14:33:44Z</time>
      </trkpt>
      <trkpt lat="43.59477" lon="0.5065">
        <ele>207.80012031594</ele>
        <time>2017-10-12T14:33:52Z</time>
      </trkpt>
      <trkpt lat="43.59468" lon="0.50653">
        <ele>207.50008509347</ele>
        <time>2017-10-12T14:34:00Z</time>
      </trkpt>
      <trkpt lat="43.59459" lon="0.50655">
        <ele>207.00001073731</ele>
        <time>2017-10-12T14:34:08Z</time>
      </trkpt>
      <trkpt lat="43.59451" lon="0.50657">
        <ele>207.00007476373</ele>
        <time>2017-10-12T14:34:16Z</time>
      </trkpt>
      <trkpt lat="43.59443" lon="0.5066">
        <ele>207.40017301458</ele>
        <time>2017-10-12T14:34:24Z</time>
      </trkpt>
      <trkpt lat="43.59435" lon="0.50663">
        <ele>207.30002900612</ele>
        <time>2017-10-12T14:34:32Z</time>
      </trkpt>
      <trkpt lat="43.59426" lon="0.50667">
        <ele>206.79995682592</ele>
        <time>2017-10-12T14:34:40Z</time>
      </trkpt>
      <trkpt lat="43.59418" lon="0.50669">
        <ele>207.09999735386</ele>
        <time>2017-10-12T14:34:48Z</time>
      </trkpt>
      <trkpt lat="43.5941" lon="0.50672">
        <ele>206.80004649653</ele>
        <time>2017-10-12T14:34:56Z</time>
      </trkpt>
      <trkpt lat="43.59401" lon="0.50675">
        <ele>206.9999809425</ele>
        <time>2017-10-12T14:35:04Z</time>
      </trkpt>
      <trkpt lat="43.59392" lon="0.50677">
        <ele>207.10004374348</ele>
        <time>2017-10-12T14:35:12Z</time>
      </trkpt>
      <trkpt lat="43.59384" lon="0.50678">
        <ele>206.5999476265</ele>
        <time>2017-10-12T14:35:20Z</time>
      </trkpt>
      <trkpt lat="43.59375" lon="0.50678">
        <ele>206.49997450237</ele>
        <time>2017-10-12T14:35:28Z</time>
      </trkpt>
      <trkpt lat="43.59366" lon="0.50679">
        <ele>207.30009084953</ele>
        <time>2017-10-12T14:35:36Z</time>
      </trkpt>
      <trkpt lat="43.59358" lon="0.5068">
        <ele>207.20004603094</ele>
        <time>2017-10-12T14:35:43Z</time>
      </trkpt>
      <trkpt lat="43.5935" lon="0.50682">
        <ele>207.00004536849</ele>
        <time>2017-10-12T14:35:50Z</time>
      </trkpt>
      <trkpt lat="43.59342" lon="0.50685">
        <ele>206.90012079694</ele>
        <time>2017-10-12T14:35:57Z</time>
      </trkpt>
      <trkpt lat="43.59334" lon="0.50688">
        <ele>206.80007107576</ele>
        <time>2017-10-12T14:36:04Z</time>
      </trkpt>
      <trkpt lat="43.59325" lon="0.50692">
        <ele>207.10002322179</ele>
        <time>2017-10-12T14:36:12Z</time>
      </trkpt>
      <trkpt lat="43.59318" lon="0.50698">
        <ele>207.20002439348</ele>
        <time>2017-10-12T14:36:20Z</time>
      </trkpt>
      <trkpt lat="43.59311" lon="0.50704">
        <ele>206.8001204546</ele>
        <time>2017-10-12T14:36:27Z</time>
      </trkpt>
      <trkpt lat="43.59303" lon="0.5071">
        <ele>207.19983435162</ele>
        <time>2017-10-12T14:36:35Z</time>
      </trkpt>
      <trkpt lat="43.59294" lon="0.50711">
        <ele>207.39994609342</ele>
        <time>2017-10-12T14:36:46Z</time>
      </trkpt>
      <trkpt lat="43.59286" lon="0.50713">
        <ele>207.70007687861</ele>
        <time>2017-10-12T14:36:53Z</time>
      </trkpt>
      <trkpt lat="43.59278" lon="0.50718">
        <ele>207.60000989937</ele>
        <time>2017-10-12T14:37:01Z</time>
      </trkpt>
      <trkpt lat="43.59271" lon="0.50724">
        <ele>207.80009360013</ele>
        <time>2017-10-12T14:37:10Z</time>
      </trkpt>
      <trkpt lat="43.59264" lon="0.50731">
        <ele>208.09996191915</ele>
        <time>2017-10-12T14:37:17Z</time>
      </trkpt>
      <trkpt lat="43.59257" lon="0.50736">
        <ele>208.59994574985</ele>
        <time>2017-10-12T14:37:24Z</time>
      </trkpt>
      <trkpt lat="43.5925" lon="0.50742">
        <ele>207.99991800695</ele>
        <time>2017-10-12T14:37:32Z</time>
      </trkpt>
      <trkpt lat="43.59243" lon="0.50748">
        <ele>208.59981829877</ele>
        <time>2017-10-12T14:37:40Z</time>
      </trkpt>
      <trkpt lat="43.59235" lon="0.50751">
        <ele>208.1999371895</ele>
        <time>2017-10-12T14:37:48Z</time>
      </trkpt>
      <trkpt lat="43.59227" lon="0.50755">
        <ele>207.89996255658</ele>
        <time>2017-10-12T14:37:56Z</time>
      </trkpt>
      <trkpt lat="43.59219" lon="0.5076">
        <ele>207.49992435271</ele>
        <time>2017-10-12T14:38:05Z</time>
      </trkpt>
      <trkpt lat="43.59214" lon="0.5077">
        <ele>205.19969838354</ele>
        <time>2017-10-12T14:42:52Z</time>
      </trkpt>
      <trkpt lat="43.59215" lon="0.50781">
        <ele>205.59983023955</ele>
        <time>2017-10-12T14:43:15Z</time>
      </trkpt>
      <trkpt lat="43.59216" lon="0.50793">
        <ele>205.59990034754</ele>
        <time>2017-10-12T14:43:23Z</time>
      </trkpt>
      <trkpt lat="43.59217" lon="0.50805">
        <ele>206.2998858274</ele>
        <time>2017-10-12T14:43:31Z</time>
      </trkpt>
      <trkpt lat="43.59218" lon="0.50817">
        <ele>207.19991893766</ele>
        <time>2017-10-12T14:43:39Z</time>
      </trkpt>
      <trkpt lat="43.5922" lon="0.50829">
        <ele>208.69982185476</ele>
        <time>2017-10-12T14:43:47Z</time>
      </trkpt>
      <trkpt lat="43.59221" lon="0.5084">
        <ele>208.4000313115</ele>
        <time>2017-10-12T14:43:57Z</time>
      </trkpt>
      <trkpt lat="43.59218" lon="0.5085">
        <ele>207.89996570081</ele>
        <time>2017-10-12T14:44:04Z</time>
      </trkpt>
      <trkpt lat="43.59218" lon="0.50863">
        <ele>207.19985218104</ele>
        <time>2017-10-12T14:44:12Z</time>
      </trkpt>
      <trkpt lat="43.59216" lon="0.50873">
        <ele>208.39981351591</ele>
        <time>2017-10-12T14:44:20Z</time>
      </trkpt>
      <trkpt lat="43.59213" lon="0.50884">
        <ele>208.69992142114</ele>
        <time>2017-10-12T14:44:28Z</time>
      </trkpt>
      <trkpt lat="43.59212" lon="0.50896">
        <ele>208.09993382499</ele>
        <time>2017-10-12T14:44:36Z</time>
      </trkpt>
      <trkpt lat="43.5921" lon="0.50908">
        <ele>208.49966453717</ele>
        <time>2017-10-12T14:44:45Z</time>
      </trkpt>
      <trkpt lat="43.59208" lon="0.5092">
        <ele>208.10000525584</ele>
        <time>2017-10-12T14:44:53Z</time>
      </trkpt>
      <trkpt lat="43.59205" lon="0.50931">
        <ele>208.39999228415</ele>
        <time>2017-10-12T14:45:01Z</time>
      </trkpt>
      <trkpt lat="43.592" lon="0.50942">
        <ele>208.59982470035</ele>
        <time>2017-10-12T14:45:09Z</time>
      </trkpt>
      <trkpt lat="43.59197" lon="0.50953">
        <ele>208.99965343914</ele>
        <time>2017-10-12T14:45:18Z</time>
      </trkpt>
      <trkpt lat="43.59193" lon="0.50963">
        <ele>210.29980103916</ele>
        <time>2017-10-12T14:45:26Z</time>
      </trkpt>
      <trkpt lat="43.59191" lon="0.50975">
        <ele>211.99964540161</ele>
        <time>2017-10-12T14:45:35Z</time>
      </trkpt>
      <trkpt lat="43.59186" lon="0.50983">
        <ele>211.79999324623</ele>
        <time>2017-10-12T14:45:43Z</time>
      </trkpt>
      <trkpt lat="43.59181" lon="0.50993">
        <ele>212.2999319925</ele>
        <time>2017-10-12T14:45:51Z</time>
      </trkpt>
      <trkpt lat="43.59177" lon="0.51003">
        <ele>213.80002984272</ele>
        <time>2017-10-12T14:45:59Z</time>
      </trkpt>
      <trkpt lat="43.59172" lon="0.51012">
        <ele>214.60027565749</ele>
        <time>2017-10-12T14:46:06Z</time>
      </trkpt>
      <trkpt lat="43.59167" lon="0.51023">
        <ele>214.80004944751</ele>
        <time>2017-10-12T14:46:13Z</time>
      </trkpt>
      <trkpt lat="43.59163" lon="0.51033">
        <ele>214.79994429059</ele>
        <time>2017-10-12T14:46:21Z</time>
      </trkpt>
      <trkpt lat="43.59158" lon="0.51042">
        <ele>215.59995949753</ele>
        <time>2017-10-12T14:46:29Z</time>
      </trkpt>
      <trkpt lat="43.59153" lon="0.51051">
        <ele>217.29992858218</ele>
        <time>2017-10-12T14:46:38Z</time>
      </trkpt>
      <trkpt lat="43.59148" lon="0.5106">
        <ele>218.20008242821</ele>
        <time>2017-10-12T14:46:46Z</time>
      </trkpt>
      <trkpt lat="43.59143" lon="0.5107">
        <ele>218.80013225468</ele>
        <time>2017-10-12T14:46:53Z</time>
      </trkpt>
      <trkpt lat="43.5914" lon="0.51081">
        <ele>219.39992326409</ele>
        <time>2017-10-12T14:47:01Z</time>
      </trkpt>
      <trkpt lat="43.59136" lon="0.51091">
        <ele>221.1999917522</ele>
        <time>2017-10-12T14:47:09Z</time>
      </trkpt>
      <trkpt lat="43.59131" lon="0.51101">
        <ele>221.7000142061</ele>
        <time>2017-10-12T14:47:18Z</time>
      </trkpt>
      <trkpt lat="43.59127" lon="0.5111">
        <ele>222.70007729515</ele>
        <time>2017-10-12T14:47:25Z</time>
      </trkpt>
      <trkpt lat="43.59122" lon="0.51119">
        <ele>223.50015380628</ele>
        <time>2017-10-12T14:47:32Z</time>
      </trkpt>
      <trkpt lat="43.59117" lon="0.51129">
        <ele>226.80007561119</ele>
        <time>2017-10-12T14:47:39Z</time>
      </trkpt>
      <trkpt lat="43.59112" lon="0.51139">
        <ele>228.59995946454</ele>
        <time>2017-10-12T14:47:47Z</time>
      </trkpt>
      <trkpt lat="43.59103" lon="0.51142">
        <ele>235.19985225302</ele>
        <time>2017-10-12T14:47:58Z</time>
      </trkpt>
      <trkpt lat="43.59095" lon="0.51144">
        <ele>235.90014215681</ele>
        <time>2017-10-12T14:48:07Z</time>
      </trkpt>
      <trkpt lat="43.59087" lon="0.51148">
        <ele>236.50002988428</ele>
        <time>2017-10-12T14:48:14Z</time>
      </trkpt>
      <trkpt lat="43.59079" lon="0.51154">
        <ele>236.49997282748</ele>
        <time>2017-10-12T14:48:22Z</time>
      </trkpt>
      <trkpt lat="43.59072" lon="0.51161">
        <ele>236.59992082061</ele>
        <time>2017-10-12T14:48:31Z</time>
      </trkpt>
      <trkpt lat="43.59066" lon="0.51169">
        <ele>236.20005181616</ele>
        <time>2017-10-12T14:48:40Z</time>
      </trkpt>
      <trkpt lat="43.5906" lon="0.51177">
        <ele>236.00005983581</ele>
        <time>2017-10-12T14:48:47Z</time>
      </trkpt>
      <trkpt lat="43.59054" lon="0.51184">
        <ele>236.40012906177</ele>
        <time>2017-10-12T14:48:53Z</time>
      </trkpt>
      <trkpt lat="43.59047" lon="0.51191">
        <ele>237.00008196844</ele>
        <time>2017-10-12T14:49:00Z</time>
      </trkpt>
      <trkpt lat="43.59042" lon="0.512">
        <ele>236.80001249758</ele>
        <time>2017-10-12T14:49:07Z</time>
      </trkpt>
      <trkpt lat="43.59036" lon="0.51208">
        <ele>237.60004963336</ele>
        <time>2017-10-12T14:49:14Z</time>
      </trkpt>
      <trkpt lat="43.5903" lon="0.51217">
        <ele>238.70012784956</ele>
        <time>2017-10-12T14:49:21Z</time>
      </trkpt>
      <trkpt lat="43.59024" lon="0.51225">
        <ele>239.59994487368</ele>
        <time>2017-10-12T14:49:29Z</time>
      </trkpt>
      <trkpt lat="43.59018" lon="0.51233">
        <ele>240.20000729765</ele>
        <time>2017-10-12T14:49:37Z</time>
      </trkpt>
      <trkpt lat="43.59014" lon="0.51244">
        <ele>240.40009126539</ele>
        <time>2017-10-12T14:49:44Z</time>
      </trkpt>
      <trkpt lat="43.59009" lon="0.51253">
        <ele>240.70016560418</ele>
        <time>2017-10-12T14:49:51Z</time>
      </trkpt>
      <trkpt lat="43.59002" lon="0.51261">
        <ele>241.4001801243</ele>
        <time>2017-10-12T14:49:59Z</time>
      </trkpt>
      <trkpt lat="43.58998" lon="0.51272">
        <ele>242.80011621225</ele>
        <time>2017-10-12T14:50:06Z</time>
      </trkpt>
      <trkpt lat="43.58993" lon="0.51282">
        <ele>243.00000149067</ele>
        <time>2017-10-12T14:50:13Z</time>
      </trkpt>
      <trkpt lat="43.58988" lon="0.51291">
        <ele>243.80010943121</ele>
        <time>2017-10-12T14:50:20Z</time>
      </trkpt>
      <trkpt lat="43.58984" lon="0.51301">
        <ele>243.49999745894</ele>
        <time>2017-10-12T14:50:27Z</time>
      </trkpt>
      <trkpt lat="43.58981" lon="0.51312">
        <ele>244.09988471141</ele>
        <time>2017-10-12T14:50:35Z</time>
      </trkpt>
      <trkpt lat="43.58978" lon="0.51323">
        <ele>244.60001004961</ele>
        <time>2017-10-12T14:50:42Z</time>
      </trkpt>
      <trkpt lat="43.58975" lon="0.51335">
        <ele>244.99986932985</ele>
        <time>2017-10-12T14:50:49Z</time>
      </trkpt>
      <trkpt lat="43.58974" lon="0.51346">
        <ele>245.19987182628</ele>
        <time>2017-10-12T14:50:57Z</time>
      </trkpt>
      <trkpt lat="43.5897" lon="0.51356">
        <ele>245.69985688738</ele>
        <time>2017-10-12T14:51:05Z</time>
      </trkpt>
      <trkpt lat="43.58965" lon="0.51367">
        <ele>246.69994699398</ele>
        <time>2017-10-12T14:51:13Z</time>
      </trkpt>
      <trkpt lat="43.58961" lon="0.51378">
        <ele>246.69986751354</ele>
        <time>2017-10-12T14:51:21Z</time>
      </trkpt>
      <trkpt lat="43.58957" lon="0.51388">
        <ele>247.50007425777</ele>
        <time>2017-10-12T14:51:29Z</time>
      </trkpt>
      <trkpt lat="43.58953" lon="0.51398">
        <ele>247.30020611665</ele>
        <time>2017-10-12T14:51:36Z</time>
      </trkpt>
      <trkpt lat="43.58951" lon="0.51409">
        <ele>248.4002502304</ele>
        <time>2017-10-12T14:51:43Z</time>
      </trkpt>
      <trkpt lat="43.58948" lon="0.51421">
        <ele>249.00009447493</ele>
        <time>2017-10-12T14:51:50Z</time>
      </trkpt>
      <trkpt lat="43.58944" lon="0.51431">
        <ele>249.60005581164</ele>
        <time>2017-10-12T14:51:57Z</time>
      </trkpt>
      <trkpt lat="43.58941" lon="0.51443">
        <ele>250.59999459268</ele>
        <time>2017-10-12T14:52:05Z</time>
      </trkpt>
      <trkpt lat="43.58937" lon="0.51452">
        <ele>251.30009159321</ele>
        <time>2017-10-12T14:52:12Z</time>
      </trkpt>
      <trkpt lat="43.58934" lon="0.51463">
        <ele>252.0999905275</ele>
        <time>2017-10-12T14:52:19Z</time>
      </trkpt>
      <trkpt lat="43.58931" lon="0.51474">
        <ele>252.90005139682</ele>
        <time>2017-10-12T14:52:27Z</time>
      </trkpt>
      <trkpt lat="43.58928" lon="0.51486">
        <ele>252.90013283802</ele>
        <time>2017-10-12T14:52:34Z</time>
      </trkpt>
      <trkpt lat="43.58925" lon="0.51497">
        <ele>252.70002270344</ele>
        <time>2017-10-12T14:52:41Z</time>
      </trkpt>
      <trkpt lat="43.58923" lon="0.51508">
        <ele>253.29999843469</ele>
        <time>2017-10-12T14:52:48Z</time>
      </trkpt>
      <trkpt lat="43.58923" lon="0.5152">
        <ele>254.09989942058</ele>
        <time>2017-10-12T14:52:55Z</time>
      </trkpt>
      <trkpt lat="43.58922" lon="0.51531">
        <ele>254.79997089604</ele>
        <time>2017-10-12T14:53:02Z</time>
      </trkpt>
      <trkpt lat="43.58921" lon="0.51542">
        <ele>254.29994024335</ele>
        <time>2017-10-12T14:53:09Z</time>
      </trkpt>
      <trkpt lat="43.5892" lon="0.51554">
        <ele>254.0000351305</ele>
        <time>2017-10-12T14:53:16Z</time>
      </trkpt>
      <trkpt lat="43.5892" lon="0.51566">
        <ele>253.09990727133</ele>
        <time>2017-10-12T14:53:23Z</time>
      </trkpt>
      <trkpt lat="43.58919" lon="0.51577">
        <ele>252.90007634068</ele>
        <time>2017-10-12T14:53:29Z</time>
      </trkpt>
      <trkpt lat="43.58919" lon="0.51589">
        <ele>252.59997987982</ele>
        <time>2017-10-12T14:53:35Z</time>
      </trkpt>
      <trkpt lat="43.58918" lon="0.516">
        <ele>252.29993126268</ele>
        <time>2017-10-12T14:53:42Z</time>
      </trkpt>
      <trkpt lat="43.58917" lon="0.51612">
        <ele>252.39989318082</ele>
        <time>2017-10-12T14:53:49Z</time>
      </trkpt>
      <trkpt lat="43.58916" lon="0.51624">
        <ele>252.59996501713</ele>
        <time>2017-10-12T14:53:56Z</time>
      </trkpt>
      <trkpt lat="43.58915" lon="0.51636">
        <ele>252.79989445348</ele>
        <time>2017-10-12T14:54:03Z</time>
      </trkpt>
      <trkpt lat="43.58915" lon="0.51648">
        <ele>252.49983725785</ele>
        <time>2017-10-12T14:54:11Z</time>
      </trkpt>
      <trkpt lat="43.58915" lon="0.5166">
        <ele>252.19981103561</ele>
        <time>2017-10-12T14:54:19Z</time>
      </trkpt>
      <trkpt lat="43.5891" lon="0.5167">
        <ele>251.79976128819</ele>
        <time>2017-10-12T14:54:29Z</time>
      </trkpt>
      <trkpt lat="43.58905" lon="0.51679">
        <ele>251.79987946821</ele>
        <time>2017-10-12T14:54:38Z</time>
      </trkpt>
      <trkpt lat="43.58899" lon="0.51689">
        <ele>249.59994068485</ele>
        <time>2017-10-12T14:54:47Z</time>
      </trkpt>
      <trkpt lat="43.58895" lon="0.51699">
        <ele>248.29989314418</ele>
        <time>2017-10-12T14:54:55Z</time>
      </trkpt>
      <trkpt lat="43.58891" lon="0.51709">
        <ele>247.29991998814</ele>
        <time>2017-10-12T14:55:02Z</time>
      </trkpt>
      <trkpt lat="43.58887" lon="0.51718">
        <ele>246.89999887166</ele>
        <time>2017-10-12T14:55:09Z</time>
      </trkpt>
      <trkpt lat="43.58881" lon="0.51728">
        <ele>246.39998400866</ele>
        <time>2017-10-12T14:55:17Z</time>
      </trkpt>
      <trkpt lat="43.58876" lon="0.51737">
        <ele>246.69992865148</ele>
        <time>2017-10-12T14:55:25Z</time>
      </trkpt>
      <trkpt lat="43.58871" lon="0.51747">
        <ele>246.2999123918</ele>
        <time>2017-10-12T14:55:33Z</time>
      </trkpt>
      <trkpt lat="43.58866" lon="0.51757">
        <ele>245.19996148394</ele>
        <time>2017-10-12T14:55:42Z</time>
      </trkpt>
      <trkpt lat="43.5886" lon="0.51766">
        <ele>245.19998803384</ele>
        <time>2017-10-12T14:55:50Z</time>
      </trkpt>
      <trkpt lat="43.58856" lon="0.51774">
        <ele>244.70011029986</ele>
        <time>2017-10-12T14:55:56Z</time>
      </trkpt>
      <trkpt lat="43.5885" lon="0.51783">
        <ele>243.69993707136</ele>
        <time>2017-10-12T14:56:03Z</time>
      </trkpt>
      <trkpt lat="43.58845" lon="0.51792">
        <ele>243.29998942512</ele>
        <time>2017-10-12T14:56:11Z</time>
      </trkpt>
      <trkpt lat="43.5884" lon="0.51801">
        <ele>242.59992116622</ele>
        <time>2017-10-12T14:56:19Z</time>
      </trkpt>
      <trkpt lat="43.58835" lon="0.5181">
        <ele>242.69991906175</ele>
        <time>2017-10-12T14:56:27Z</time>
      </trkpt>
      <trkpt lat="43.58831" lon="0.51821">
        <ele>242.89998744898</ele>
        <time>2017-10-12T14:56:37Z</time>
      </trkpt>
      <trkpt lat="43.58826" lon="0.5183">
        <ele>242.40010045776</ele>
        <time>2017-10-12T14:56:46Z</time>
      </trkpt>
      <trkpt lat="43.58821" lon="0.5184">
        <ele>240.60000590487</ele>
        <time>2017-10-12T14:56:53Z</time>
      </trkpt>
      <trkpt lat="43.58818" lon="0.51851">
        <ele>240.99987557143</ele>
        <time>2017-10-12T14:57:01Z</time>
      </trkpt>
      <trkpt lat="43.58813" lon="0.51861">
        <ele>240.99987531159</ele>
        <time>2017-10-12T14:57:10Z</time>
      </trkpt>
      <trkpt lat="43.58808" lon="0.5187">
        <ele>241.79993346969</ele>
        <time>2017-10-12T14:57:18Z</time>
      </trkpt>
      <trkpt lat="43.58803" lon="0.51878">
        <ele>240.90005822611</ele>
        <time>2017-10-12T14:57:24Z</time>
      </trkpt>
      <trkpt lat="43.58798" lon="0.51888">
        <ele>241.99997933239</ele>
        <time>2017-10-12T14:57:32Z</time>
      </trkpt>
      <trkpt lat="43.58793" lon="0.51897">
        <ele>241.69997163606</ele>
        <time>2017-10-12T14:57:41Z</time>
      </trkpt>
      <trkpt lat="43.58787" lon="0.51906">
        <ele>241.30005924118</ele>
        <time>2017-10-12T14:57:47Z</time>
      </trkpt>
      <trkpt lat="43.58782" lon="0.51914">
        <ele>240.60016720999</ele>
        <time>2017-10-12T14:57:52Z</time>
      </trkpt>
      <trkpt lat="43.58776" lon="0.51922">
        <ele>241.50003804777</ele>
        <time>2017-10-12T14:57:58Z</time>
      </trkpt>
      <trkpt lat="43.5877" lon="0.5193">
        <ele>242.50015596746</ele>
        <time>2017-10-12T14:58:05Z</time>
      </trkpt>
      <trkpt lat="43.58764" lon="0.51938">
        <ele>242.30019440032</ele>
        <time>2017-10-12T14:58:12Z</time>
      </trkpt>
      <trkpt lat="43.58759" lon="0.51948">
        <ele>242.20020652238</ele>
        <time>2017-10-12T14:58:20Z</time>
      </trkpt>
      <trkpt lat="43.58755" lon="0.51959">
        <ele>242.2001840766</ele>
        <time>2017-10-12T14:58:27Z</time>
      </trkpt>
      <trkpt lat="43.58751" lon="0.51969">
        <ele>242.50012059673</ele>
        <time>2017-10-12T14:58:34Z</time>
      </trkpt>
      <trkpt lat="43.58746" lon="0.51978">
        <ele>242.09997994228</ele>
        <time>2017-10-12T14:58:41Z</time>
      </trkpt>
      <trkpt lat="43.58741" lon="0.51988">
        <ele>242.70002007102</ele>
        <time>2017-10-12T14:58:48Z</time>
      </trkpt>
      <trkpt lat="43.58734" lon="0.51995">
        <ele>242.29990560283</ele>
        <time>2017-10-12T14:58:54Z</time>
      </trkpt>
      <trkpt lat="43.58726" lon="0.51998">
        <ele>243.00001335962</ele>
        <time>2017-10-12T14:59:00Z</time>
      </trkpt>
      <trkpt lat="43.58719" lon="0.52005">
        <ele>241.50019179959</ele>
        <time>2017-10-12T14:59:06Z</time>
      </trkpt>
      <trkpt lat="43.58712" lon="0.52013">
        <ele>240.50000140401</ele>
        <time>2017-10-12T14:59:12Z</time>
      </trkpt>
      <trkpt lat="43.58705" lon="0.5202">
        <ele>240.70000758142</ele>
        <time>2017-10-12T14:59:18Z</time>
      </trkpt>
      <trkpt lat="43.58699" lon="0.52029">
        <ele>241.0000463283</ele>
        <time>2017-10-12T14:59:25Z</time>
      </trkpt>
      <trkpt lat="43.58694" lon="0.52038">
        <ele>240.69997581008</ele>
        <time>2017-10-12T14:59:33Z</time>
      </trkpt>
      <trkpt lat="43.5869" lon="0.52048">
        <ele>241.69991465389</ele>
        <time>2017-10-12T14:59:41Z</time>
      </trkpt>
      <trkpt lat="43.58685" lon="0.52058">
        <ele>241.49997898627</ele>
        <time>2017-10-12T14:59:49Z</time>
      </trkpt>
      <trkpt lat="43.58679" lon="0.52067">
        <ele>241.09996216846</ele>
        <time>2017-10-12T14:59:56Z</time>
      </trkpt>
      <trkpt lat="43.58674" lon="0.52076">
        <ele>239.90002548124</ele>
        <time>2017-10-12T15:00:04Z</time>
      </trkpt>
      <trkpt lat="43.58669" lon="0.52086">
        <ele>240.79999722104</ele>
        <time>2017-10-12T15:00:11Z</time>
      </trkpt>
      <trkpt lat="43.58663" lon="0.52094">
        <ele>240.50000134111</ele>
        <time>2017-10-12T15:00:17Z</time>
      </trkpt>
      <trkpt lat="43.58658" lon="0.52103">
        <ele>241.29988696373</ele>
        <time>2017-10-12T15:00:28Z</time>
      </trkpt>
      <trkpt lat="43.58652" lon="0.52111">
        <ele>241.70012389423</ele>
        <time>2017-10-12T15:00:36Z</time>
      </trkpt>
      <trkpt lat="43.58647" lon="0.5212">
        <ele>241.60026554202</ele>
        <time>2017-10-12T15:00:43Z</time>
      </trkpt>
      <trkpt lat="43.58642" lon="0.5213">
        <ele>240.20035251743</ele>
        <time>2017-10-12T15:00:50Z</time>
      </trkpt>
      <trkpt lat="43.58635" lon="0.52138">
        <ele>238.70029152055</ele>
        <time>2017-10-12T15:00:56Z</time>
      </trkpt>
      <trkpt lat="43.58629" lon="0.52146">
        <ele>238.20032529678</ele>
        <time>2017-10-12T15:01:02Z</time>
      </trkpt>
      <trkpt lat="43.58623" lon="0.52153">
        <ele>236.50015387871</ele>
        <time>2017-10-12T15:01:08Z</time>
      </trkpt>
      <trkpt lat="43.58616" lon="0.52161">
        <ele>236.2003185107</ele>
        <time>2017-10-12T15:01:14Z</time>
      </trkpt>
      <trkpt lat="43.5861" lon="0.52169">
        <ele>235.50021829474</ele>
        <time>2017-10-12T15:01:20Z</time>
      </trkpt>
      <trkpt lat="43.58604" lon="0.52177">
        <ele>236.00032519103</ele>
        <time>2017-10-12T15:01:26Z</time>
      </trkpt>
      <trkpt lat="43.58597" lon="0.52183">
        <ele>236.20029456379</ele>
        <time>2017-10-12T15:01:33Z</time>
      </trkpt>
      <trkpt lat="43.5859" lon="0.52189">
        <ele>235.6003600259</ele>
        <time>2017-10-12T15:01:41Z</time>
      </trkpt>
      <trkpt lat="43.58583" lon="0.52195">
        <ele>235.2003418839</ele>
        <time>2017-10-12T15:01:48Z</time>
      </trkpt>
      <trkpt lat="43.58576" lon="0.52202">
        <ele>235.00012696885</ele>
        <time>2017-10-12T15:01:55Z</time>
      </trkpt>
      <trkpt lat="43.58569" lon="0.52209">
        <ele>235.50014777636</ele>
        <time>2017-10-12T15:02:02Z</time>
      </trkpt>
      <trkpt lat="43.58562" lon="0.52216">
        <ele>236.00001027532</ele>
        <time>2017-10-12T15:02:09Z</time>
      </trkpt>
      <trkpt lat="43.58554" lon="0.52222">
        <ele>236.50015242754</ele>
        <time>2017-10-12T15:02:17Z</time>
      </trkpt>
      <trkpt lat="43.58547" lon="0.52228">
        <ele>236.20016048491</ele>
        <time>2017-10-12T15:02:26Z</time>
      </trkpt>
      <trkpt lat="43.58539" lon="0.52233">
        <ele>235.90002608842</ele>
        <time>2017-10-12T15:02:34Z</time>
      </trkpt>
      <trkpt lat="43.58532" lon="0.52238">
        <ele>235.30006721012</ele>
        <time>2017-10-12T15:02:40Z</time>
      </trkpt>
      <trkpt lat="43.58524" lon="0.52244">
        <ele>234.69994566928</ele>
        <time>2017-10-12T15:02:46Z</time>
      </trkpt>
      <trkpt lat="43.58517" lon="0.5225">
        <ele>234.29994001592</ele>
        <time>2017-10-12T15:02:52Z</time>
      </trkpt>
      <trkpt lat="43.5851" lon="0.52255">
        <ele>234.59994014442</ele>
        <time>2017-10-12T15:02:58Z</time>
      </trkpt>
      <trkpt lat="43.58503" lon="0.52261">
        <ele>233.60004029427</ele>
        <time>2017-10-12T15:03:04Z</time>
      </trkpt>
      <trkpt lat="43.58496" lon="0.52268">
        <ele>233.20001980955</ele>
        <time>2017-10-12T15:03:11Z</time>
      </trkpt>
      <trkpt lat="43.58489" lon="0.52274">
        <ele>232.5999822604</ele>
        <time>2017-10-12T15:03:17Z</time>
      </trkpt>
      <trkpt lat="43.58482" lon="0.5228">
        <ele>232.29990500601</ele>
        <time>2017-10-12T15:03:24Z</time>
      </trkpt>
      <trkpt lat="43.58474" lon="0.52286">
        <ele>231.79993390461</ele>
        <time>2017-10-12T15:03:31Z</time>
      </trkpt>
      <trkpt lat="43.58467" lon="0.52291">
        <ele>231.10003596056</ele>
        <time>2017-10-12T15:03:38Z</time>
      </trkpt>
      <trkpt lat="43.58461" lon="0.52298">
        <ele>230.90013811516</ele>
        <time>2017-10-12T15:03:44Z</time>
      </trkpt>
      <trkpt lat="43.58454" lon="0.52306">
        <ele>231.00012555915</ele>
        <time>2017-10-12T15:03:51Z</time>
      </trkpt>
      <trkpt lat="43.58448" lon="0.52314">
        <ele>230.50008227062</ele>
        <time>2017-10-12T15:03:58Z</time>
      </trkpt>
      <trkpt lat="43.58441" lon="0.52322">
        <ele>230.20009705397</ele>
        <time>2017-10-12T15:04:05Z</time>
      </trkpt>
      <trkpt lat="43.58436" lon="0.52329">
        <ele>229.40009143236</ele>
        <time>2017-10-12T15:04:11Z</time>
      </trkpt>
      <trkpt lat="43.5843" lon="0.52338">
        <ele>228.30004589758</ele>
        <time>2017-10-12T15:04:18Z</time>
      </trkpt>
      <trkpt lat="43.58424" lon="0.52347">
        <ele>227.70015229784</ele>
        <time>2017-10-12T15:04:25Z</time>
      </trkpt>
      <trkpt lat="43.58419" lon="0.52356">
        <ele>227.20012892093</ele>
        <time>2017-10-12T15:04:32Z</time>
      </trkpt>
      <trkpt lat="43.58414" lon="0.52365">
        <ele>227.00007171323</ele>
        <time>2017-10-12T15:04:39Z</time>
      </trkpt>
      <trkpt lat="43.58409" lon="0.52374">
        <ele>226.59998066119</ele>
        <time>2017-10-12T15:04:46Z</time>
      </trkpt>
      <trkpt lat="43.58404" lon="0.52384">
        <ele>226.60006059838</ele>
        <time>2017-10-12T15:04:53Z</time>
      </trkpt>
      <trkpt lat="43.58399" lon="0.52393">
        <ele>227.00000351944</ele>
        <time>2017-10-12T15:05:00Z</time>
      </trkpt>
      <trkpt lat="43.58394" lon="0.52402">
        <ele>226.20004656237</ele>
        <time>2017-10-12T15:05:08Z</time>
      </trkpt>
      <trkpt lat="43.58389" lon="0.52412">
        <ele>225.69998968792</ele>
        <time>2017-10-12T15:05:15Z</time>
      </trkpt>
      <trkpt lat="43.58384" lon="0.52421">
        <ele>225.30005318583</ele>
        <time>2017-10-12T15:05:22Z</time>
      </trkpt>
      <trkpt lat="43.58379" lon="0.5243">
        <ele>223.99996496916</ele>
        <time>2017-10-12T15:05:29Z</time>
      </trkpt>
      <trkpt lat="43.58374" lon="0.5244">
        <ele>223.39999853009</ele>
        <time>2017-10-12T15:05:36Z</time>
      </trkpt>
      <trkpt lat="43.58368" lon="0.52449">
        <ele>223.09996267122</ele>
        <time>2017-10-12T15:05:44Z</time>
      </trkpt>
      <trkpt lat="43.58363" lon="0.52458">
        <ele>223.20001634302</ele>
        <time>2017-10-12T15:05:52Z</time>
      </trkpt>
      <trkpt lat="43.58358" lon="0.52468">
        <ele>222.80003188465</ele>
        <time>2017-10-12T15:05:59Z</time>
      </trkpt>
      <trkpt lat="43.58354" lon="0.52479">
        <ele>222.59997719568</ele>
        <time>2017-10-12T15:06:06Z</time>
      </trkpt>
      <trkpt lat="43.5835" lon="0.52488">
        <ele>221.8999452069</ele>
        <time>2017-10-12T15:06:13Z</time>
      </trkpt>
      <trkpt lat="43.58345" lon="0.52498">
        <ele>221.09999441204</ele>
        <time>2017-10-12T15:06:20Z</time>
      </trkpt>
      <trkpt lat="43.5834" lon="0.52508">
        <ele>220.99999337553</ele>
        <time>2017-10-12T15:06:27Z</time>
      </trkpt>
      <trkpt lat="43.58336" lon="0.52517">
        <ele>220.80004408211</ele>
        <time>2017-10-12T15:06:34Z</time>
      </trkpt>
      <trkpt lat="43.58332" lon="0.52528">
        <ele>219.80005475099</ele>
        <time>2017-10-12T15:06:42Z</time>
      </trkpt>
      <trkpt lat="43.58329" lon="0.52538">
        <ele>219.30004270741</ele>
        <time>2017-10-12T15:06:49Z</time>
      </trkpt>
      <trkpt lat="43.58325" lon="0.52548">
        <ele>218.90011387123</ele>
        <time>2017-10-12T15:06:56Z</time>
      </trkpt>
      <trkpt lat="43.58321" lon="0.52557">
        <ele>218.30006123785</ele>
        <time>2017-10-12T15:07:03Z</time>
      </trkpt>
      <trkpt lat="43.58316" lon="0.52568">
        <ele>218.3000459593</ele>
        <time>2017-10-12T15:07:11Z</time>
      </trkpt>
      <trkpt lat="43.58311" lon="0.52576">
        <ele>217.50017425069</ele>
        <time>2017-10-12T15:07:18Z</time>
      </trkpt>
      <trkpt lat="43.58306" lon="0.52585">
        <ele>217.5001410309</ele>
        <time>2017-10-12T15:07:25Z</time>
      </trkpt>
      <trkpt lat="43.583" lon="0.52593">
        <ele>217.70024037141</ele>
        <time>2017-10-12T15:07:32Z</time>
      </trkpt>
      <trkpt lat="43.58295" lon="0.52603">
        <ele>217.40040907992</ele>
        <time>2017-10-12T15:07:39Z</time>
      </trkpt>
      <trkpt lat="43.58292" lon="0.52613">
        <ele>217.60017272747</ele>
        <time>2017-10-12T15:07:45Z</time>
      </trkpt>
      <trkpt lat="43.58288" lon="0.52624">
        <ele>218.00007693549</ele>
        <time>2017-10-12T15:07:54Z</time>
      </trkpt>
      <trkpt lat="43.58284" lon="0.52635">
        <ele>217.30007301225</ele>
        <time>2017-10-12T15:08:03Z</time>
      </trkpt>
      <trkpt lat="43.58278" lon="0.52644">
        <ele>215.90016200069</ele>
        <time>2017-10-12T15:08:10Z</time>
      </trkpt>
      <trkpt lat="43.58274" lon="0.52653">
        <ele>215.20018394093</ele>
        <time>2017-10-12T15:08:16Z</time>
      </trkpt>
      <trkpt lat="43.5827" lon="0.52663">
        <ele>214.70013571735</ele>
        <time>2017-10-12T15:08:22Z</time>
      </trkpt>
      <trkpt lat="43.58265" lon="0.52673">
        <ele>214.20007685579</ele>
        <time>2017-10-12T15:08:29Z</time>
      </trkpt>
      <trkpt lat="43.58259" lon="0.52681">
        <ele>213.70001479924</ele>
        <time>2017-10-12T15:08:37Z</time>
      </trkpt>
      <trkpt lat="43.58253" lon="0.52689">
        <ele>212.29997722497</ele>
        <time>2017-10-12T15:08:44Z</time>
      </trkpt>
      <trkpt lat="43.5825" lon="0.52701">
        <ele>211.09994399833</ele>
        <time>2017-10-12T15:08:54Z</time>
      </trkpt>
      <trkpt lat="43.58251" lon="0.52712">
        <ele>210.29991891384</ele>
        <time>2017-10-12T15:09:05Z</time>
      </trkpt>
      <trkpt lat="43.5825" lon="0.52724">
        <ele>209.90007878238</ele>
        <time>2017-10-12T15:10:35Z</time>
      </trkpt>
      <trkpt lat="43.58251" lon="0.52736">
        <ele>210.59976463748</ele>
        <time>2017-10-12T15:11:05Z</time>
      </trkpt>
      <trkpt lat="43.58259" lon="0.5274">
        <ele>208.79981006614</ele>
        <time>2017-10-12T15:14:04Z</time>
      </trkpt>
      <trkpt lat="43.58267" lon="0.52746">
        <ele>207.79973687381</ele>
        <time>2017-10-12T15:14:14Z</time>
      </trkpt>
      <trkpt lat="43.58274" lon="0.52752">
        <ele>205.89979586153</ele>
        <time>2017-10-12T15:14:24Z</time>
      </trkpt>
      <trkpt lat="43.5828" lon="0.5276">
        <ele>204.7998106153</ele>
        <time>2017-10-12T15:14:33Z</time>
      </trkpt>
      <trkpt lat="43.58286" lon="0.52769">
        <ele>203.49983693499</ele>
        <time>2017-10-12T15:14:42Z</time>
      </trkpt>
      <trkpt lat="43.58292" lon="0.52776">
        <ele>201.29981778808</ele>
        <time>2017-10-12T15:14:51Z</time>
      </trkpt>
      <trkpt lat="43.58299" lon="0.52784">
        <ele>200.09984743614</ele>
        <time>2017-10-12T15:15:00Z</time>
      </trkpt>
      <trkpt lat="43.58306" lon="0.52791">
        <ele>198.89997432343</ele>
        <time>2017-10-12T15:15:08Z</time>
      </trkpt>
      <trkpt lat="43.58313" lon="0.52797">
        <ele>197.59987852121</ele>
        <time>2017-10-12T15:15:15Z</time>
      </trkpt>
      <trkpt lat="43.58321" lon="0.52801">
        <ele>196.59988104427</ele>
        <time>2017-10-12T15:15:23Z</time>
      </trkpt>
      <trkpt lat="43.58329" lon="0.52806">
        <ele>195.99991444139</ele>
        <time>2017-10-12T15:15:31Z</time>
      </trkpt>
      <trkpt lat="43.58337" lon="0.5281">
        <ele>194.7999270029</ele>
        <time>2017-10-12T15:15:38Z</time>
      </trkpt>
      <trkpt lat="43.58345" lon="0.52814">
        <ele>193.89985866058</ele>
        <time>2017-10-12T15:15:46Z</time>
      </trkpt>
      <trkpt lat="43.58353" lon="0.52816">
        <ele>193.79992418077</ele>
        <time>2017-10-12T15:15:53Z</time>
      </trkpt>
      <trkpt lat="43.58361" lon="0.52819">
        <ele>193.09987562438</ele>
        <time>2017-10-12T15:16:00Z</time>
      </trkpt>
      <trkpt lat="43.58369" lon="0.52823">
        <ele>192.99996779587</ele>
        <time>2017-10-12T15:16:07Z</time>
      </trkpt>
      <trkpt lat="43.58377" lon="0.52827">
        <ele>192.39995493674</ele>
        <time>2017-10-12T15:16:14Z</time>
      </trkpt>
      <trkpt lat="43.58384" lon="0.52833">
        <ele>192.59981634977</ele>
        <time>2017-10-12T15:16:21Z</time>
      </trkpt>
      <trkpt lat="43.58392" lon="0.52838">
        <ele>192.49988537126</ele>
        <time>2017-10-12T15:16:30Z</time>
      </trkpt>
      <trkpt lat="43.584" lon="0.52841">
        <ele>192.59994802733</ele>
        <time>2017-10-12T15:16:37Z</time>
      </trkpt>
      <trkpt lat="43.58407" lon="0.52845">
        <ele>192.70001625326</ele>
        <time>2017-10-12T15:16:43Z</time>
      </trkpt>
      <trkpt lat="43.58415" lon="0.5285">
        <ele>192.69999633905</ele>
        <time>2017-10-12T15:16:50Z</time>
      </trkpt>
      <trkpt lat="43.58423" lon="0.52852">
        <ele>193.39999290446</ele>
        <time>2017-10-12T15:16:57Z</time>
      </trkpt>
      <trkpt lat="43.58431" lon="0.52857">
        <ele>193.99991083449</ele>
        <time>2017-10-12T15:17:05Z</time>
      </trkpt>
      <trkpt lat="43.58439" lon="0.52863">
        <ele>194.89996187518</ele>
        <time>2017-10-12T15:17:13Z</time>
      </trkpt>
      <trkpt lat="43.58446" lon="0.52867">
        <ele>194.79994535008</ele>
        <time>2017-10-12T15:17:20Z</time>
      </trkpt>
      <trkpt lat="43.58454" lon="0.5287">
        <ele>194.50000920964</ele>
        <time>2017-10-12T15:17:26Z</time>
      </trkpt>
      <trkpt lat="43.58462" lon="0.52876">
        <ele>195.19996403735</ele>
        <time>2017-10-12T15:17:33Z</time>
      </trkpt>
      <trkpt lat="43.58469" lon="0.52881">
        <ele>195.1999030578</ele>
        <time>2017-10-12T15:17:41Z</time>
      </trkpt>
      <trkpt lat="43.58476" lon="0.52886">
        <ele>195.099908953</ele>
        <time>2017-10-12T15:17:48Z</time>
      </trkpt>
      <trkpt lat="43.58484" lon="0.52891">
        <ele>194.59985802741</ele>
        <time>2017-10-12T15:17:56Z</time>
      </trkpt>
      <trkpt lat="43.58492" lon="0.52896">
        <ele>192.59987944044</ele>
        <time>2017-10-12T15:18:04Z</time>
      </trkpt>
      <trkpt lat="43.585" lon="0.529">
        <ele>190.69991572734</ele>
        <time>2017-10-12T15:18:11Z</time>
      </trkpt>
      <trkpt lat="43.58507" lon="0.52904">
        <ele>190.29994468204</ele>
        <time>2017-10-12T15:18:18Z</time>
      </trkpt>
      <trkpt lat="43.58516" lon="0.52909">
        <ele>189.19991667699</ele>
        <time>2017-10-12T15:18:25Z</time>
      </trkpt>
      <trkpt lat="43.58523" lon="0.52914">
        <ele>189.39984950904</ele>
        <time>2017-10-12T15:18:34Z</time>
      </trkpt>
      <trkpt lat="43.58531" lon="0.52916">
        <ele>188.69971878194</ele>
        <time>2017-10-12T15:18:42Z</time>
      </trkpt>
      <trkpt lat="43.58539" lon="0.52912">
        <ele>188.59984091992</ele>
        <time>2017-10-12T15:18:51Z</time>
      </trkpt>
      <trkpt lat="43.58547" lon="0.52907">
        <ele>188.1999873624</ele>
        <time>2017-10-12T15:18:59Z</time>
      </trkpt>
      <trkpt lat="43.58556" lon="0.52905">
        <ele>188.09984021633</ele>
        <time>2017-10-12T15:19:08Z</time>
      </trkpt>
      <trkpt lat="43.58563" lon="0.52911">
        <ele>187.59999010223</ele>
        <time>2017-10-12T15:19:17Z</time>
      </trkpt>
      <trkpt lat="43.58568" lon="0.52922">
        <ele>186.40001292419</ele>
        <time>2017-10-12T15:19:24Z</time>
      </trkpt>
      <trkpt lat="43.58573" lon="0.52931">
        <ele>186.00009205129</ele>
        <time>2017-10-12T15:19:30Z</time>
      </trkpt>
      <trkpt lat="43.58578" lon="0.52941">
        <ele>185.0999466778</ele>
        <time>2017-10-12T15:19:37Z</time>
      </trkpt>
      <trkpt lat="43.58584" lon="0.52949">
        <ele>184.70003798832</ele>
        <time>2017-10-12T15:19:44Z</time>
      </trkpt>
      <trkpt lat="43.58589" lon="0.52959">
        <ele>184.89996635948</ele>
        <time>2017-10-12T15:19:51Z</time>
      </trkpt>
      <trkpt lat="43.58594" lon="0.52969">
        <ele>184.59995726135</ele>
        <time>2017-10-12T15:20:00Z</time>
      </trkpt>
      <trkpt lat="43.58601" lon="0.52977">
        <ele>184.39992482912</ele>
        <time>2017-10-12T15:20:10Z</time>
      </trkpt>
      <trkpt lat="43.58605" lon="0.52986">
        <ele>186.30000623561</ele>
        <time>2017-10-12T15:20:17Z</time>
      </trkpt>
      <trkpt lat="43.5861" lon="0.52995">
        <ele>186.40001005633</ele>
        <time>2017-10-12T15:20:24Z</time>
      </trkpt>
      <trkpt lat="43.58617" lon="0.53002">
        <ele>187.09991249886</ele>
        <time>2017-10-12T15:20:32Z</time>
      </trkpt>
      <trkpt lat="43.58624" lon="0.53008">
        <ele>187.49989045555</ele>
        <time>2017-10-12T15:20:41Z</time>
      </trkpt>
      <trkpt lat="43.58633" lon="0.53008">
        <ele>187.79990327622</ele>
        <time>2017-10-12T15:20:49Z</time>
      </trkpt>
      <trkpt lat="43.58641" lon="0.53007">
        <ele>187.79996223271</ele>
        <time>2017-10-12T15:20:58Z</time>
      </trkpt>
      <trkpt lat="43.5865" lon="0.53008">
        <ele>187.89993368468</ele>
        <time>2017-10-12T15:21:06Z</time>
      </trkpt>
      <trkpt lat="43.58659" lon="0.53011">
        <ele>188.39981136559</ele>
        <time>2017-10-12T15:21:16Z</time>
      </trkpt>
      <trkpt lat="43.58666" lon="0.53017">
        <ele>187.3999922196</ele>
        <time>2017-10-12T15:21:25Z</time>
      </trkpt>
      <trkpt lat="43.58674" lon="0.53024">
        <ele>185.60000422071</ele>
        <time>2017-10-12T15:21:32Z</time>
      </trkpt>
      <trkpt lat="43.58681" lon="0.53029">
        <ele>185.29993835264</ele>
        <time>2017-10-12T15:21:39Z</time>
      </trkpt>
      <trkpt lat="43.58687" lon="0.53035">
        <ele>184.99991910739</ele>
        <time>2017-10-12T15:21:47Z</time>
      </trkpt>
      <trkpt lat="43.58696" lon="0.53037">
        <ele>184.29997945045</ele>
        <time>2017-10-12T15:21:53Z</time>
      </trkpt>
      <trkpt lat="43.58704" lon="0.53041">
        <ele>183.90003856259</ele>
        <time>2017-10-12T15:21:59Z</time>
      </trkpt>
      <trkpt lat="43.58712" lon="0.53046">
        <ele>184.49994084502</ele>
        <time>2017-10-12T15:22:07Z</time>
      </trkpt>
      <trkpt lat="43.58719" lon="0.53054">
        <ele>183.90002136941</ele>
        <time>2017-10-12T15:22:15Z</time>
      </trkpt>
      <trkpt lat="43.58723" lon="0.53063">
        <ele>184.29990306077</ele>
        <time>2017-10-12T15:22:24Z</time>
      </trkpt>
      <trkpt lat="43.5873" lon="0.53071">
        <ele>185.29988140679</ele>
        <time>2017-10-12T15:22:33Z</time>
      </trkpt>
      <trkpt lat="43.58736" lon="0.5308">
        <ele>186.60004471904</ele>
        <time>2017-10-12T15:22:42Z</time>
      </trkpt>
      <trkpt lat="43.58742" lon="0.53087">
        <ele>188.79994622447</ele>
        <time>2017-10-12T15:22:51Z</time>
      </trkpt>
      <trkpt lat="43.58749" lon="0.53094">
        <ele>190.40003274694</ele>
        <time>2017-10-12T15:22:59Z</time>
      </trkpt>
      <trkpt lat="43.58753" lon="0.53104">
        <ele>192.59995477336</ele>
        <time>2017-10-12T15:23:07Z</time>
      </trkpt>
      <trkpt lat="43.58758" lon="0.53114">
        <ele>193.99998200822</ele>
        <time>2017-10-12T15:23:15Z</time>
      </trkpt>
      <trkpt lat="43.58762" lon="0.53125">
        <ele>195.39998441163</ele>
        <time>2017-10-12T15:23:23Z</time>
      </trkpt>
      <trkpt lat="43.58766" lon="0.53136">
        <ele>196.89999932727</ele>
        <time>2017-10-12T15:23:31Z</time>
      </trkpt>
      <trkpt lat="43.5877" lon="0.53145">
        <ele>196.79997715259</ele>
        <time>2017-10-12T15:23:38Z</time>
      </trkpt>
      <trkpt lat="43.58773" lon="0.53155">
        <ele>197.39995987349</ele>
        <time>2017-10-12T15:23:45Z</time>
      </trkpt>
      <trkpt lat="43.58777" lon="0.53166">
        <ele>197.99996399905</ele>
        <time>2017-10-12T15:23:53Z</time>
      </trkpt>
      <trkpt lat="43.5878" lon="0.53177">
        <ele>198.49997648296</ele>
        <time>2017-10-12T15:24:01Z</time>
      </trkpt>
      <trkpt lat="43.58783" lon="0.53188">
        <ele>198.19993410508</ele>
        <time>2017-10-12T15:24:09Z</time>
      </trkpt>
      <trkpt lat="43.58784" lon="0.53199">
        <ele>198.90004088654</ele>
        <time>2017-10-12T15:24:17Z</time>
      </trkpt>
      <trkpt lat="43.58786" lon="0.5321">
        <ele>200.30001548937</ele>
        <time>2017-10-12T15:24:24Z</time>
      </trkpt>
      <trkpt lat="43.58789" lon="0.5322">
        <ele>200.5000154761</ele>
        <time>2017-10-12T15:24:31Z</time>
      </trkpt>
      <trkpt lat="43.58794" lon="0.5323">
        <ele>199.89998655787</ele>
        <time>2017-10-12T15:24:39Z</time>
      </trkpt>
      <trkpt lat="43.58796" lon="0.53241">
        <ele>200.40012231472</ele>
        <time>2017-10-12T15:24:46Z</time>
      </trkpt>
      <trkpt lat="43.588" lon="0.53252">
        <ele>201.40016054415</ele>
        <time>2017-10-12T15:24:52Z</time>
      </trkpt>
      <trkpt lat="43.58806" lon="0.53261">
        <ele>200.99995074145</ele>
        <time>2017-10-12T15:25:00Z</time>
      </trkpt>
      <trkpt lat="43.5881" lon="0.53271">
        <ele>201.29997956884</ele>
        <time>2017-10-12T15:25:07Z</time>
      </trkpt>
      <trkpt lat="43.58813" lon="0.53283">
        <ele>201.79995801039</ele>
        <time>2017-10-12T15:25:14Z</time>
      </trkpt>
      <trkpt lat="43.58815" lon="0.53294">
        <ele>203.39999909152</ele>
        <time>2017-10-12T15:25:22Z</time>
      </trkpt>
      <trkpt lat="43.5882" lon="0.53304">
        <ele>203.40002451766</ele>
        <time>2017-10-12T15:25:30Z</time>
      </trkpt>
      <trkpt lat="43.58823" lon="0.53315">
        <ele>203.9000209442</ele>
        <time>2017-10-12T15:25:37Z</time>
      </trkpt>
      <trkpt lat="43.58827" lon="0.53326">
        <ele>203.99996583612</ele>
        <time>2017-10-12T15:25:44Z</time>
      </trkpt>
      <trkpt lat="43.58828" lon="0.53338">
        <ele>204.59996520168</ele>
        <time>2017-10-12T15:25:52Z</time>
      </trkpt>
      <trkpt lat="43.58832" lon="0.53348">
        <ele>205.90001591712</ele>
        <time>2017-10-12T15:25:59Z</time>
      </trkpt>
      <trkpt lat="43.58835" lon="0.53359">
        <ele>206.00002950847</ele>
        <time>2017-10-12T15:26:06Z</time>
      </trkpt>
      <trkpt lat="43.58839" lon="0.53369">
        <ele>206.59994721622</ele>
        <time>2017-10-12T15:26:13Z</time>
      </trkpt>
      <trkpt lat="43.58841" lon="0.5338">
        <ele>206.99998016417</ele>
        <time>2017-10-12T15:26:20Z</time>
      </trkpt>
      <trkpt lat="43.58843" lon="0.53391">
        <ele>206.99997459059</ele>
        <time>2017-10-12T15:26:27Z</time>
      </trkpt>
      <trkpt lat="43.58844" lon="0.53402">
        <ele>207.59998989344</ele>
        <time>2017-10-12T15:26:34Z</time>
      </trkpt>
      <trkpt lat="43.58848" lon="0.53413">
        <ele>208.29997207001</ele>
        <time>2017-10-12T15:26:41Z</time>
      </trkpt>
      <trkpt lat="43.5885" lon="0.53424">
        <ele>207.99993256109</ele>
        <time>2017-10-12T15:26:50Z</time>
      </trkpt>
      <trkpt lat="43.58851" lon="0.53437">
        <ele>208.49995371883</ele>
        <time>2017-10-12T15:26:59Z</time>
      </trkpt>
      <trkpt lat="43.58851" lon="0.53448">
        <ele>208.90000681868</ele>
        <time>2017-10-12T15:27:07Z</time>
      </trkpt>
      <trkpt lat="43.58854" lon="0.53458">
        <ele>208.09994502628</ele>
        <time>2017-10-12T15:27:15Z</time>
      </trkpt>
      <trkpt lat="43.58859" lon="0.53468">
        <ele>207.29994196425</ele>
        <time>2017-10-12T15:27:24Z</time>
      </trkpt>
      <trkpt lat="43.58865" lon="0.53477">
        <ele>206.89996482198</ele>
        <time>2017-10-12T15:27:33Z</time>
      </trkpt>
      <trkpt lat="43.58872" lon="0.53484">
        <ele>206.19994653803</ele>
        <time>2017-10-12T15:27:42Z</time>
      </trkpt>
      <trkpt lat="43.58878" lon="0.53492">
        <ele>204.89996428979</ele>
        <time>2017-10-12T15:27:50Z</time>
      </trkpt>
      <trkpt lat="43.58886" lon="0.53496">
        <ele>201.59999226748</ele>
        <time>2017-10-12T15:27:56Z</time>
      </trkpt>
      <trkpt lat="43.58893" lon="0.53501">
        <ele>200.69999090387</ele>
        <time>2017-10-12T15:28:02Z</time>
      </trkpt>
      <trkpt lat="43.58901" lon="0.53507">
        <ele>200.4000200851</ele>
        <time>2017-10-12T15:28:09Z</time>
      </trkpt>
      <trkpt lat="43.58908" lon="0.53514">
        <ele>199.49997155743</ele>
        <time>2017-10-12T15:28:16Z</time>
      </trkpt>
      <trkpt lat="43.58915" lon="0.53522">
        <ele>197.99997613552</ele>
        <time>2017-10-12T15:28:24Z</time>
      </trkpt>
      <trkpt lat="43.58922" lon="0.53529">
        <ele>197.89998805838</ele>
        <time>2017-10-12T15:28:31Z</time>
      </trkpt>
      <trkpt lat="43.58928" lon="0.53536">
        <ele>196.69999360646</ele>
        <time>2017-10-12T15:28:38Z</time>
      </trkpt>
      <trkpt lat="43.58935" lon="0.53542">
        <ele>196.29997711548</ele>
        <time>2017-10-12T15:28:44Z</time>
      </trkpt>
      <trkpt lat="43.58942" lon="0.53549">
        <ele>196.29996057969</ele>
        <time>2017-10-12T15:28:51Z</time>
      </trkpt>
      <trkpt lat="43.58949" lon="0.53557">
        <ele>195.59997216047</ele>
        <time>2017-10-12T15:28:58Z</time>
      </trkpt>
      <trkpt lat="43.58956" lon="0.53564">
        <ele>195.49999482161</ele>
        <time>2017-10-12T15:29:05Z</time>
      </trkpt>
      <trkpt lat="43.58962" lon="0.5357">
        <ele>195.79999284254</ele>
        <time>2017-10-12T15:29:11Z</time>
      </trkpt>
      <trkpt lat="43.58969" lon="0.53577">
        <ele>196.09996647542</ele>
        <time>2017-10-12T15:29:18Z</time>
      </trkpt>
      <trkpt lat="43.58976" lon="0.53584">
        <ele>196.49999487669</ele>
        <time>2017-10-12T15:29:25Z</time>
      </trkpt>
      <trkpt lat="43.58984" lon="0.5359">
        <ele>196.099957778</ele>
        <time>2017-10-12T15:29:33Z</time>
      </trkpt>
      <trkpt lat="43.5899" lon="0.53598">
        <ele>196.69999608123</ele>
        <time>2017-10-12T15:29:41Z</time>
      </trkpt>
      <trkpt lat="43.58996" lon="0.53606">
        <ele>196.9000141642</ele>
        <time>2017-10-12T15:29:48Z</time>
      </trkpt>
      <trkpt lat="43.59003" lon="0.53613">
        <ele>197.79998114861</ele>
        <time>2017-10-12T15:29:56Z</time>
      </trkpt>
      <trkpt lat="43.5901" lon="0.53618">
        <ele>197.99997930359</ele>
        <time>2017-10-12T15:30:03Z</time>
      </trkpt>
      <trkpt lat="43.59018" lon="0.53623">
        <ele>198.29996503102</ele>
        <time>2017-10-12T15:30:11Z</time>
      </trkpt>
      <trkpt lat="43.59025" lon="0.5363">
        <ele>199.39999546072</ele>
        <time>2017-10-12T15:30:19Z</time>
      </trkpt>
      <trkpt lat="43.59031" lon="0.53638">
        <ele>199.19998769263</ele>
        <time>2017-10-12T15:30:27Z</time>
      </trkpt>
      <trkpt lat="43.59039" lon="0.53642">
        <ele>199.19999437247</ele>
        <time>2017-10-12T15:30:34Z</time>
      </trkpt>
      <trkpt lat="43.59047" lon="0.53643">
        <ele>199.99999290696</ele>
        <time>2017-10-12T15:30:41Z</time>
      </trkpt>
      <trkpt lat="43.59055" lon="0.53644">
        <ele>199.69998501102</ele>
        <time>2017-10-12T15:30:47Z</time>
      </trkpt>
      <trkpt lat="43.59063" lon="0.53645">
        <ele>199.09995808228</ele>
        <time>2017-10-12T15:30:54Z</time>
      </trkpt>
      <trkpt lat="43.5907" lon="0.53651">
        <ele>198.59997441282</ele>
        <time>2017-10-12T15:31:01Z</time>
      </trkpt>
      <trkpt lat="43.59077" lon="0.53657">
        <ele>198.29998864147</ele>
        <time>2017-10-12T15:31:07Z</time>
      </trkpt>
      <trkpt lat="43.59083" lon="0.53663">
        <ele>197.79998602531</ele>
        <time>2017-10-12T15:31:13Z</time>
      </trkpt>
      <trkpt lat="43.59091" lon="0.5367">
        <ele>197.59997181462</ele>
        <time>2017-10-12T15:31:20Z</time>
      </trkpt>
      <trkpt lat="43.59097" lon="0.53678">
        <ele>197.29997766946</ele>
        <time>2017-10-12T15:31:28Z</time>
      </trkpt>
      <trkpt lat="43.59102" lon="0.53687">
        <ele>197.09997422385</ele>
        <time>2017-10-12T15:31:35Z</time>
      </trkpt>
      <trkpt lat="43.59107" lon="0.53695">
        <ele>197.59997596202</ele>
        <time>2017-10-12T15:31:42Z</time>
      </trkpt>
      <trkpt lat="43.59113" lon="0.53705">
        <ele>198.09998044897</ele>
        <time>2017-10-12T15:31:49Z</time>
      </trkpt>
      <trkpt lat="43.59117" lon="0.53714">
        <ele>198.99999339022</ele>
        <time>2017-10-12T15:31:57Z</time>
      </trkpt>
      <trkpt lat="43.59123" lon="0.53724">
        <ele>199.50000061313</ele>
        <time>2017-10-12T15:32:05Z</time>
      </trkpt>
      <trkpt lat="43.59127" lon="0.53734">
        <ele>201.29998499704</ele>
        <time>2017-10-12T15:32:13Z</time>
      </trkpt>
      <trkpt lat="43.59131" lon="0.53744">
        <ele>201.90002479971</ele>
        <time>2017-10-12T15:32:20Z</time>
      </trkpt>
      <trkpt lat="43.59135" lon="0.53755">
        <ele>203.70001374419</ele>
        <time>2017-10-12T15:32:30Z</time>
      </trkpt>
      <trkpt lat="43.5914" lon="0.53765">
        <ele>204.29998803398</ele>
        <time>2017-10-12T15:32:38Z</time>
      </trkpt>
      <trkpt lat="43.59145" lon="0.53774">
        <ele>204.7000121465</ele>
        <time>2017-10-12T15:32:46Z</time>
      </trkpt>
      <trkpt lat="43.5915" lon="0.53784">
        <ele>205.79998697764</ele>
        <time>2017-10-12T15:32:55Z</time>
      </trkpt>
      <trkpt lat="43.59156" lon="0.53794">
        <ele>205.7999871621</ele>
        <time>2017-10-12T15:33:11Z</time>
      </trkpt>
      <trkpt lat="43.59161" lon="0.53803">
        <ele>206.70001199556</ele>
        <time>2017-10-12T15:33:22Z</time>
      </trkpt>
      <trkpt lat="43.59165" lon="0.53814">
        <ele>207.50000205236</ele>
        <time>2017-10-12T15:34:22Z</time>
      </trkpt>
      <trkpt lat="43.59169" lon="0.53825">
        <ele>207.79999135004</ele>
        <time>2017-10-12T15:34:32Z</time>
      </trkpt>
      <trkpt lat="43.59174" lon="0.53834">
        <ele>209.4000269307</ele>
        <time>2017-10-12T15:34:42Z</time>
      </trkpt>
      <trkpt lat="43.5918" lon="0.53842">
        <ele>210.70001984421</ele>
        <time>2017-10-12T15:34:52Z</time>
      </trkpt>
      <trkpt lat="43.59189" lon="0.5384">
        <ele>212.90002799634</ele>
        <time>2017-10-12T15:35:03Z</time>
      </trkpt>
      <trkpt lat="43.5919" lon="0.53837">
        <ele>214.09997945861</ele>
        <time>2017-10-12T15:35:21Z</time>
      </trkpt>
      <trkpt lat="43.5919" lon="0.53837">
        <ele>214.09997945861</ele>
        <time>2017-10-12T15:35:22Z</time>
      </trkpt>
    </trkseg>
  </trk>
</gpx>